Time,TemperatureF,DewpointF,PressureIn,WindDirection,WindDirectionDegrees,WindSpeedMPH,WindSpeedGustMPH,Humidity,HourlyPrecipIn,Conditions,Clouds,dailyrainin,SoftwareType,DateUTC
2013-12-04 00:00:00,70.8,65.0,29.99,WSW,249,2.5,2.5,81,0.00,,,0.00,TxWx,2013-12-04 05:00:00,
2013-12-04 00:01:00,70.8,65.0,30.00,WSW,249,1.9,2.5,81,0.00,,,0.00,TxWx,2013-12-04 05:01:00,
2013-12-04 00:06:00,70.8,64.0,30.00,WSW,249,2.5,2.5,80,0.00,,,0.00,TxWx,2013-12-04 05:06:00,
2013-12-04 00:07:00,70.7,64.0,30.00,WSW,249,3.1,3.1,80,0.00,,,0.00,TxWx,2013-12-04 05:07:00,
2013-12-04 00:11:00,70.7,64.0,30.00,WSW,249,1.9,1.9,80,0.00,,,0.00,TxWx,2013-12-04 05:11:00,
2013-12-04 00:12:00,70.7,64.0,30.00,WSW,249,2.5,3.1,80,0.00,,,0.00,TxWx,2013-12-04 05:12:00,
2013-12-04 00:16:00,70.6,65.0,30.00,WSW,249,2.5,2.5,81,0.00,,,0.00,TxWx,2013-12-04 05:16:00,
2013-12-04 00:17:00,70.7,65.0,30.00,WSW,249,1.9,2.5,81,0.00,,,0.00,TxWx,2013-12-04 05:17:00,
2013-12-04 00:21:00,70.6,65.0,30.00,WSW,249,2.5,2.5,81,0.00,,,0.00,TxWx,2013-12-04 05:21:00,
2013-12-04 00:22:00,70.6,65.0,30.00,WSW,249,2.5,2.5,81,0.00,,,0.00,TxWx,2013-12-04 05:22:00,
2013-12-04 00:23:00,70.6,65.0,30.00,WSW,249,3.1,3.7,81,0.00,,,0.00,TxWx,2013-12-04 05:23:00,
2013-12-04 00:26:00,70.5,65.0,29.99,WSW,249,1.9,1.9,81,0.00,,,0.00,TxWx,2013-12-04 05:26:00,
2013-12-04 00:27:00,70.5,65.0,29.99,WSW,249,1.9,1.9,81,0.00,,,0.00,TxWx,2013-12-04 05:27:00,
2013-12-04 00:28:00,70.5,64.0,29.99,WSW,249,1.9,1.9,81,0.00,,,0.00,TxWx,2013-12-04 05:28:00,
2013-12-04 00:32:00,70.4,64.0,30.00,WSW,249,1.9,1.9,81,0.00,,,0.00,TxWx,2013-12-04 05:32:00,
2013-12-04 00:33:00,70.4,64.0,29.99,WSW,249,1.9,1.9,81,0.00,,,0.00,TxWx,2013-12-04 05:33:00,
2013-12-04 00:37:00,70.4,64.0,30.00,WSW,249,1.9,1.9,81,0.00,,,0.00,TxWx,2013-12-04 05:37:00,
2013-12-04 00:38:00,70.4,64.0,30.00,WSW,249,1.2,1.9,81,0.00,,,0.00,TxWx,2013-12-04 05:38:00,
2013-12-04 00:39:00,70.3,64.0,29.99,WSW,249,1.9,1.9,81,0.00,,,0.00,TxWx,2013-12-04 05:39:00,
2013-12-04 00:42:00,70.3,64.0,29.99,WSW,249,1.9,1.9,81,0.00,,,0.00,TxWx,2013-12-04 05:42:00,
2013-12-04 00:43:00,70.3,64.0,29.99,WSW,249,1.2,1.9,81,0.00,,,0.00,TxWx,2013-12-04 05:43:00,
2013-12-04 00:44:00,70.3,64.0,29.99,WSW,249,2.5,2.5,81,0.00,,,0.00,TxWx,2013-12-04 05:44:00,
2013-12-04 00:47:00,70.3,64.0,29.99,WSW,249,1.2,1.2,82,0.00,,,0.00,TxWx,2013-12-04 05:47:00,
2013-12-04 00:48:00,70.2,64.0,29.99,WSW,249,0.6,1.2,82,0.00,,,0.00,TxWx,2013-12-04 05:48:00,
2013-12-04 00:49:00,70.2,64.0,29.99,WSW,249,0.6,1.2,82,0.00,,,0.00,TxWx,2013-12-04 05:49:00,
2013-12-04 00:50:00,70.2,64.0,29.99,WSW,249,1.9,2.5,82,0.00,,,0.00,TxWx,2013-12-04 05:50:00,
2013-12-04 00:52:00,70.2,64.0,29.99,SW,226,1.2,1.2,82,0.00,,,0.00,TxWx,2013-12-04 05:52:00,
2013-12-04 00:53:00,70.2,64.0,29.99,SW,226,1.9,2.5,82,0.00,,,0.00,TxWx,2013-12-04 05:53:00,
2013-12-04 00:54:00,70.2,64.0,29.99,SW,226,1.2,1.9,82,0.00,,,0.00,TxWx,2013-12-04 05:54:00,
2013-12-04 00:55:00,70.2,64.0,29.99,SW,226,1.9,2.5,82,0.00,,,0.00,TxWx,2013-12-04 05:55:00,
2013-12-04 00:57:00,70.2,64.0,29.99,SW,226,1.2,1.2,82,0.00,,,0.00,TxWx,2013-12-04 05:57:00,
2013-12-04 00:59:00,70.2,64.0,29.99,SW,226,0.6,1.2,82,0.00,,,0.00,TxWx,2013-12-04 05:59:00,
2013-12-04 01:00:00,70.2,64.0,29.99,SW,226,2.5,2.5,82,0.00,,,0.00,TxWx,2013-12-04 06:00:00,
2013-12-04 01:02:00,70.3,64.0,29.99,SW,226,1.9,1.9,82,0.00,,,0.00,TxWx,2013-12-04 06:02:00,
2013-12-04 01:04:00,70.3,64.0,29.99,WSW,249,1.9,1.9,82,0.00,,,0.00,TxWx,2013-12-04 06:04:00,
2013-12-04 01:05:00,70.3,64.0,29.99,WSW,249,3.1,3.1,82,0.00,,,0.00,TxWx,2013-12-04 06:05:00,
2013-12-04 01:06:00,70.3,64.0,29.99,WSW,249,3.1,3.1,82,0.00,,,0.00,TxWx,2013-12-04 06:06:00,
2013-12-04 01:07:00,70.4,64.0,29.99,WSW,249,3.1,3.1,82,0.00,,,0.00,TxWx,2013-12-04 06:07:00,
2013-12-04 01:10:00,70.4,64.0,29.99,WSW,249,3.1,3.7,82,0.00,,,0.00,TxWx,2013-12-04 06:10:00,
2013-12-04 01:11:00,70.4,64.0,29.99,WSW,249,3.7,4.3,82,0.00,,,0.00,TxWx,2013-12-04 06:11:00,
2013-12-04 01:12:00,70.4,64.0,29.99,WSW,249,4.3,4.3,82,0.00,,,0.00,TxWx,2013-12-04 06:12:00,
2013-12-04 01:13:00,70.5,65.0,29.99,West,271,3.7,3.7,82,0.00,,,0.00,TxWx,2013-12-04 06:13:00,
2013-12-04 01:15:00,70.4,64.0,29.99,West,271,3.7,4.3,82,0.00,,,0.00,TxWx,2013-12-04 06:15:00,
2013-12-04 01:16:00,70.4,64.0,29.99,West,271,3.7,4.3,82,0.00,,,0.00,TxWx,2013-12-04 06:16:00,
2013-12-04 01:17:00,70.4,64.0,29.99,WSW,249,4.3,4.3,82,0.00,,,0.00,TxWx,2013-12-04 06:17:00,
2013-12-04 01:18:00,70.4,64.0,29.99,WSW,249,3.7,3.7,82,0.00,,,0.00,TxWx,2013-12-04 06:18:00,
2013-12-04 01:20:00,70.4,64.0,29.99,WSW,249,2.5,3.1,81,0.00,,,0.00,TxWx,2013-12-04 06:20:00,
2013-12-04 01:21:00,70.3,64.0,29.99,WSW,249,3.7,3.7,81,0.00,,,0.00,TxWx,2013-12-04 06:21:00,
2013-12-04 01:22:00,70.3,64.0,29.99,WSW,249,3.7,3.7,81,0.00,,,0.00,TxWx,2013-12-04 06:22:00,
2013-12-04 01:23:00,70.3,64.0,30.00,WSW,249,3.7,3.7,81,0.00,,,0.00,TxWx,2013-12-04 06:23:00,
2013-12-04 01:25:00,70.4,64.0,29.99,WSW,249,3.7,3.7,81,0.00,,,0.00,TxWx,2013-12-04 06:25:00,
2013-12-04 01:26:00,70.4,64.0,29.99,WSW,249,3.1,3.7,81,0.00,,,0.00,TxWx,2013-12-04 06:26:00,
2013-12-04 01:27:00,70.4,64.0,29.99,WSW,249,3.7,3.7,81,0.00,,,0.00,TxWx,2013-12-04 06:27:00,
2013-12-04 01:28:00,70.4,64.0,29.99,WSW,249,3.7,3.7,81,0.00,,,0.00,TxWx,2013-12-04 06:28:00,
2013-12-04 01:30:00,70.4,64.0,29.99,WSW,249,3.7,3.7,81,0.00,,,0.00,TxWx,2013-12-04 06:30:00,
2013-12-04 01:31:00,70.4,64.0,29.99,WSW,249,3.7,3.7,81,0.00,,,0.00,TxWx,2013-12-04 06:31:00,
2013-12-04 01:32:00,70.4,64.0,29.99,WSW,249,3.7,3.7,81,0.00,,,0.00,TxWx,2013-12-04 06:32:00,
2013-12-04 01:33:00,70.3,64.0,29.99,WSW,249,3.7,4.3,81,0.00,,,0.00,TxWx,2013-12-04 06:33:00,
2013-12-04 01:35:00,70.3,64.0,29.99,West,271,3.1,3.1,81,0.00,,,0.00,TxWx,2013-12-04 06:35:00,
2013-12-04 01:36:00,70.3,64.0,29.99,West,271,3.1,3.1,81,0.00,,,0.00,TxWx,2013-12-04 06:36:00,
2013-12-04 01:37:00,70.3,64.0,29.99,West,271,3.1,3.1,81,0.00,,,0.00,TxWx,2013-12-04 06:37:00,
2013-12-04 01:38:00,70.3,64.0,30.00,West,271,3.1,3.1,81,0.00,,,0.00,TxWx,2013-12-04 06:38:00,
2013-12-04 01:39:00,70.3,64.0,30.00,West,271,3.1,3.1,81,0.00,,,0.00,TxWx,2013-12-04 06:39:00,
2013-12-04 01:40:00,70.2,64.0,30.00,West,271,2.5,3.1,81,0.00,,,0.00,TxWx,2013-12-04 06:40:00,
2013-12-04 01:43:00,70.2,64.0,30.00,WSW,249,3.7,3.7,81,0.00,,,0.00,TxWx,2013-12-04 06:43:00,
2013-12-04 01:44:00,70.2,64.0,30.00,West,271,3.7,3.7,81,0.00,,,0.00,TxWx,2013-12-04 06:44:00,
2013-12-04 01:45:00,70.1,64.0,30.00,West,271,3.1,3.7,81,0.00,,,0.00,TxWx,2013-12-04 06:45:00,
2013-12-04 01:48:00,70.1,64.0,30.00,West,271,3.7,3.7,82,0.00,,,0.00,TxWx,2013-12-04 06:48:00,
2013-12-04 01:49:00,70.1,64.0,30.00,West,271,3.1,3.7,82,0.00,,,0.00,TxWx,2013-12-04 06:49:00,
2013-12-04 01:50:00,70.2,64.0,30.00,West,271,3.1,3.7,82,0.00,,,0.00,TxWx,2013-12-04 06:50:00,
2013-12-04 01:53:00,70.1,64.0,30.00,West,271,3.1,3.1,82,0.00,,,0.00,TxWx,2013-12-04 06:53:00,
2013-12-04 01:54:00,70.0,64.0,30.00,West,271,3.7,3.7,82,0.00,,,0.00,TxWx,2013-12-04 06:54:00,
2013-12-04 01:55:00,69.9,64.0,30.00,West,271,3.1,3.7,82,0.00,,,0.00,TxWx,2013-12-04 06:55:00,
2013-12-04 01:56:00,70.0,64.0,30.00,West,271,2.5,3.1,83,0.00,,,0.00,TxWx,2013-12-04 06:56:00,
2013-12-04 01:58:00,69.7,64.0,30.00,West,271,3.7,4.3,83,0.00,,,0.00,TxWx,2013-12-04 06:58:00,
2013-12-04 01:59:00,69.7,64.0,30.00,West,271,3.1,3.7,83,0.00,,,0.00,TxWx,2013-12-04 06:59:00,
2013-12-04 02:00:00,69.6,64.0,30.00,West,271,3.1,3.7,83,0.00,,,0.00,TxWx,2013-12-04 07:00:00,
2013-12-04 02:01:00,69.6,64.0,30.00,West,271,3.7,3.7,83,0.00,,,0.00,TxWx,2013-12-04 07:01:00,
2013-12-04 02:04:00,69.4,64.0,30.00,West,271,3.7,3.7,83,0.00,,,0.00,TxWx,2013-12-04 07:04:00,
2013-12-04 02:05:00,69.4,64.0,30.00,West,271,3.7,3.7,83,0.00,,,0.00,TxWx,2013-12-04 07:05:00,
2013-12-04 02:06:00,69.4,64.0,30.00,West,271,3.7,3.7,83,0.00,,,0.00,TxWx,2013-12-04 07:06:00,
2013-12-04 02:07:00,69.4,64.0,30.00,West,271,3.7,3.7,83,0.00,,,0.00,TxWx,2013-12-04 07:07:00,
2013-12-04 02:09:00,69.3,64.0,30.00,West,271,3.1,4.3,84,0.00,,,0.00,TxWx,2013-12-04 07:09:00,
2013-12-04 02:10:00,69.3,64.0,30.00,West,271,3.7,3.7,84,0.00,,,0.00,TxWx,2013-12-04 07:10:00,
2013-12-04 02:11:00,69.3,64.0,30.00,West,271,3.7,3.7,84,0.00,,,0.00,TxWx,2013-12-04 07:11:00,
2013-12-04 02:12:00,69.2,64.0,30.00,West,271,3.1,3.1,84,0.00,,,0.00,TxWx,2013-12-04 07:12:00,
2013-12-04 02:14:00,69.2,64.0,30.00,West,271,3.7,4.3,84,0.00,,,0.00,TxWx,2013-12-04 07:14:00,
2013-12-04 02:15:00,69.2,64.0,29.99,West,271,3.7,3.7,84,0.00,,,0.00,TxWx,2013-12-04 07:15:00,
2013-12-04 02:16:00,69.1,64.0,29.99,West,271,3.1,3.7,84,0.00,,,0.00,TxWx,2013-12-04 07:16:00,
2013-12-04 02:17:00,69.1,64.0,30.00,West,271,3.1,3.1,84,0.00,,,0.00,TxWx,2013-12-04 07:17:00,
2013-12-04 02:20:00,69.1,64.0,29.99,West,271,4.3,4.3,84,0.00,,,0.00,TxWx,2013-12-04 07:20:00,
2013-12-04 02:21:00,69.1,64.0,30.00,West,271,3.7,3.7,84,0.00,,,0.00,TxWx,2013-12-04 07:21:00,
2013-12-04 02:23:00,69.1,64.0,30.00,West,271,3.1,3.1,84,0.00,,,0.00,TxWx,2013-12-04 07:23:00,
2013-12-04 02:25:00,69.0,64.0,30.00,West,271,3.7,4.3,84,0.00,,,0.00,TxWx,2013-12-04 07:25:00,
2013-12-04 02:26:00,69.0,64.0,30.00,West,271,3.7,3.7,84,0.00,,,0.00,TxWx,2013-12-04 07:26:00,
2013-12-04 02:27:00,69.1,64.0,29.99,West,271,2.5,3.1,84,0.00,,,0.00,TxWx,2013-12-04 07:27:00,
2013-12-04 02:28:00,69.0,64.0,29.99,West,271,3.1,3.7,84,0.00,,,0.00,TxWx,2013-12-04 07:28:00,
2013-12-04 02:30:00,69.0,64.0,30.00,West,271,3.7,3.7,84,0.00,,,0.00,TxWx,2013-12-04 07:30:00,
2013-12-04 02:31:00,69.0,64.0,30.00,West,271,3.7,3.7,85,0.00,,,0.00,TxWx,2013-12-04 07:31:00,
2013-12-04 02:32:00,69.0,64.0,30.00,West,271,3.7,4.3,85,0.00,,,0.00,TxWx,2013-12-04 07:32:00,
2013-12-04 02:33:00,69.0,64.0,30.00,West,271,4.3,4.3,85,0.00,,,0.00,TxWx,2013-12-04 07:33:00,
2013-12-04 02:36:00,69.0,64.0,29.99,West,271,3.1,3.7,85,0.00,,,0.00,TxWx,2013-12-04 07:36:00,
2013-12-04 02:37:00,68.9,64.0,29.99,West,271,3.7,3.7,85,0.00,,,0.00,TxWx,2013-12-04 07:37:00,
2013-12-04 02:38:00,68.9,64.0,29.99,West,271,3.7,3.7,85,0.00,,,0.00,TxWx,2013-12-04 07:38:00,
2013-12-04 02:41:00,68.9,64.0,29.99,West,271,4.3,4.3,85,0.00,,,0.00,TxWx,2013-12-04 07:41:00,
2013-12-04 02:42:00,68.9,64.0,29.99,West,271,3.7,3.7,85,0.00,,,0.00,TxWx,2013-12-04 07:42:00,
2013-12-04 02:43:00,69.0,64.0,29.99,West,271,3.1,3.1,85,0.00,,,0.00,TxWx,2013-12-04 07:43:00,
2013-12-04 02:44:00,68.9,64.0,29.99,West,271,3.1,3.7,85,0.00,,,0.00,TxWx,2013-12-04 07:44:00,
2013-12-04 02:46:00,68.9,64.0,29.99,West,271,2.5,2.5,85,0.00,,,0.00,TxWx,2013-12-04 07:46:00,
2013-12-04 02:47:00,68.9,64.0,29.99,West,271,2.5,3.1,85,0.00,,,0.00,TxWx,2013-12-04 07:47:00,
2013-12-04 02:48:00,68.8,64.0,29.99,West,271,3.1,3.1,85,0.00,,,0.00,TxWx,2013-12-04 07:48:00,
2013-12-04 02:49:00,68.8,64.0,29.99,West,271,3.1,3.1,85,0.00,,,0.00,TxWx,2013-12-04 07:49:00,
2013-12-04 02:51:00,68.8,64.0,29.99,West,271,3.1,3.7,85,0.00,,,0.00,TxWx,2013-12-04 07:51:00,
2013-12-04 02:52:00,68.8,64.0,29.99,West,271,3.1,3.1,85,0.00,,,0.00,TxWx,2013-12-04 07:52:00,
2013-12-04 02:53:00,68.8,64.0,29.99,West,271,3.7,3.7,85,0.00,,,0.00,TxWx,2013-12-04 07:53:00,
2013-12-04 02:54:00,68.9,64.0,29.99,West,271,3.1,3.1,85,0.00,,,0.00,TxWx,2013-12-04 07:54:00,
2013-12-04 02:55:00,68.8,64.0,29.99,West,271,3.7,3.7,85,0.00,,,0.00,TxWx,2013-12-04 07:55:00,
2013-12-04 02:56:00,68.9,64.0,29.99,West,271,2.5,3.1,85,0.00,,,0.00,TxWx,2013-12-04 07:56:00,
2013-12-04 02:57:00,68.9,64.0,29.99,West,271,3.1,3.1,85,0.00,,,0.00,TxWx,2013-12-04 07:57:00,
2013-12-04 02:58:00,68.9,64.0,29.99,West,271,2.5,2.5,85,0.00,,,0.00,TxWx,2013-12-04 07:58:00,
2013-12-04 02:59:00,69.0,64.0,29.99,West,271,2.5,2.5,85,0.00,,,0.00,TxWx,2013-12-04 07:59:00,
2013-12-04 03:00:00,69.0,64.0,29.99,West,271,2.5,3.1,85,0.00,,,0.00,TxWx,2013-12-04 08:00:00,
2013-12-04 03:01:00,69.0,64.0,29.99,West,271,1.9,2.5,85,0.00,,,0.00,TxWx,2013-12-04 08:01:00,
2013-12-04 03:02:00,69.0,64.0,29.99,West,271,2.5,2.5,85,0.00,,,0.00,TxWx,2013-12-04 08:02:00,
2013-12-04 03:03:00,69.0,64.0,29.99,West,271,3.7,3.7,85,0.00,,,0.00,TxWx,2013-12-04 08:03:00,
2013-12-04 03:04:00,69.0,64.0,29.99,West,271,3.1,3.1,85,0.00,,,0.00,TxWx,2013-12-04 08:04:00,
2013-12-04 03:05:00,69.0,64.0,29.99,West,271,2.5,3.1,85,0.00,,,0.00,TxWx,2013-12-04 08:05:00,
2013-12-04 03:06:00,69.0,64.0,29.99,West,271,3.1,3.7,85,0.00,,,0.00,TxWx,2013-12-04 08:06:00,
2013-12-04 03:07:00,69.0,64.0,29.99,West,271,2.5,3.1,85,0.00,,,0.00,TxWx,2013-12-04 08:07:00,
2013-12-04 03:08:00,69.0,64.0,29.99,WNW,294,2.5,3.1,85,0.00,,,0.00,TxWx,2013-12-04 08:08:00,
2013-12-04 03:10:00,68.9,64.0,29.99,West,271,3.7,3.7,85,0.00,,,0.00,TxWx,2013-12-04 08:10:00,
2013-12-04 03:11:00,68.9,64.0,29.99,West,271,3.7,4.3,85,0.00,,,0.00,TxWx,2013-12-04 08:11:00,
2013-12-04 03:12:00,68.9,64.0,29.99,West,271,3.7,3.7,85,0.00,,,0.00,TxWx,2013-12-04 08:12:00,
2013-12-04 03:13:00,69.0,64.0,29.99,West,271,3.7,4.3,85,0.00,,,0.00,TxWx,2013-12-04 08:13:00,
2013-12-04 03:15:00,69.0,64.0,29.99,West,271,3.1,3.1,85,0.00,,,0.00,TxWx,2013-12-04 08:15:00,
2013-12-04 03:17:00,69.1,64.0,29.99,West,271,3.1,3.1,85,0.00,,,0.00,TxWx,2013-12-04 08:17:00,
2013-12-04 03:18:00,69.0,64.0,29.99,West,271,3.1,3.1,85,0.00,,,0.00,TxWx,2013-12-04 08:18:00,
2013-12-04 03:19:00,69.0,64.0,29.99,West,271,3.7,3.7,85,0.00,,,0.00,TxWx,2013-12-04 08:19:00,
2013-12-04 03:20:00,69.0,64.0,29.99,West,271,3.1,3.1,85,0.00,,,0.00,TxWx,2013-12-04 08:20:00,
2013-12-04 03:23:00,69.1,64.0,29.99,West,271,2.5,3.1,85,0.00,,,0.00,TxWx,2013-12-04 08:23:00,
2013-12-04 03:24:00,69.0,64.0,29.99,West,271,2.5,3.1,85,0.00,,,0.00,TxWx,2013-12-04 08:24:00,
2013-12-04 03:28:00,69.0,64.0,29.99,West,271,3.7,3.7,85,0.00,,,0.00,TxWx,2013-12-04 08:28:00,
2013-12-04 03:29:00,69.0,64.0,29.99,West,271,3.1,3.1,85,0.00,,,0.00,TxWx,2013-12-04 08:29:00,
2013-12-04 03:30:00,69.0,64.0,29.99,West,271,3.1,3.1,85,0.00,,,0.00,TxWx,2013-12-04 08:30:00,
2013-12-04 03:34:00,68.9,64.0,29.99,West,271,3.1,3.1,85,0.00,,,0.00,TxWx,2013-12-04 08:34:00,
2013-12-04 03:35:00,68.9,64.0,29.99,West,271,3.1,3.1,85,0.00,,,0.00,TxWx,2013-12-04 08:35:00,
2013-12-04 03:39:00,69.0,64.0,29.99,West,271,2.5,2.5,85,0.00,,,0.00,TxWx,2013-12-04 08:39:00,
2013-12-04 03:40:00,69.0,64.0,29.99,West,271,3.1,3.1,85,0.00,,,0.00,TxWx,2013-12-04 08:40:00,
2013-12-04 03:44:00,68.8,64.0,29.99,West,271,3.1,3.1,85,0.00,,,0.00,TxWx,2013-12-04 08:44:00,
2013-12-04 03:45:00,68.8,64.0,29.99,West,271,2.5,2.5,85,0.00,,,0.00,TxWx,2013-12-04 08:45:00,
2013-12-04 03:49:00,68.9,64.0,29.99,West,271,2.5,2.5,85,0.00,,,0.00,TxWx,2013-12-04 08:49:00,
2013-12-04 03:50:00,68.9,64.0,29.99,West,271,2.5,3.1,85,0.00,,,0.00,TxWx,2013-12-04 08:50:00,
2013-12-04 03:54:00,68.9,64.0,29.99,WSW,249,3.7,4.3,84,0.00,,,0.00,TxWx,2013-12-04 08:54:00,
2013-12-04 03:55:00,68.9,64.0,29.99,WSW,249,3.7,3.7,84,0.00,,,0.00,TxWx,2013-12-04 08:55:00,
2013-12-04 03:59:00,68.9,64.0,29.99,West,271,3.7,3.7,84,0.00,,,0.00,TxWx,2013-12-04 08:59:00,
2013-12-04 04:01:00,68.9,64.0,29.99,West,271,3.7,3.7,84,0.00,,,0.00,TxWx,2013-12-04 09:01:00,
2013-12-04 04:03:00,68.9,64.0,29.99,West,271,3.1,3.1,84,0.00,,,0.00,TxWx,2013-12-04 09:03:00,
2013-12-04 04:05:00,68.9,64.0,29.99,West,271,3.1,3.1,84,0.00,,,0.00,TxWx,2013-12-04 09:05:00,
2013-12-04 04:06:00,68.8,64.0,29.99,West,271,3.1,3.1,84,0.00,,,0.00,TxWx,2013-12-04 09:06:00,
2013-12-04 04:07:00,68.8,64.0,29.99,West,271,3.1,3.1,84,0.00,,,0.00,TxWx,2013-12-04 09:07:00,
2013-12-04 04:08:00,68.8,64.0,29.99,West,271,2.5,3.1,84,0.00,,,0.00,TxWx,2013-12-04 09:08:00,
2013-12-04 04:10:00,68.8,64.0,29.99,West,271,2.5,2.5,84,0.00,,,0.00,TxWx,2013-12-04 09:10:00,
2013-12-04 04:11:00,68.8,64.0,29.99,West,271,2.5,2.5,84,0.00,,,0.00,TxWx,2013-12-04 09:11:00,
2013-12-04 04:12:00,68.8,64.0,29.99,West,271,3.1,3.1,84,0.00,,,0.00,TxWx,2013-12-04 09:12:00,
2013-12-04 04:13:00,68.9,64.0,29.99,West,271,3.1,3.1,84,0.00,,,0.00,TxWx,2013-12-04 09:13:00,
2013-12-04 04:15:00,68.9,64.0,30.00,West,271,2.5,3.1,84,0.00,,,0.00,TxWx,2013-12-04 09:15:00,
2013-12-04 04:17:00,68.9,64.0,30.00,West,271,3.1,3.1,85,0.00,,,0.00,TxWx,2013-12-04 09:17:00,
2013-12-04 04:18:00,68.8,64.0,29.99,West,271,2.5,3.1,85,0.00,,,0.00,TxWx,2013-12-04 09:18:00,
2013-12-04 04:20:00,68.9,64.0,30.00,West,271,3.1,3.7,85,0.00,,,0.00,TxWx,2013-12-04 09:20:00,
2013-12-04 04:22:00,68.9,64.0,30.00,West,271,2.5,2.5,85,0.00,,,0.00,TxWx,2013-12-04 09:22:00,
2013-12-04 04:23:00,68.8,64.0,30.00,West,271,3.1,3.7,85,0.00,,,0.00,TxWx,2013-12-04 09:23:00,
2013-12-04 04:24:00,68.8,64.0,30.00,West,271,3.1,3.1,85,0.00,,,0.00,TxWx,2013-12-04 09:24:00,
2013-12-04 04:25:00,68.7,64.0,30.00,West,271,3.1,3.1,85,0.00,,,0.00,TxWx,2013-12-04 09:25:00,
2013-12-04 04:27:00,68.7,64.0,30.00,West,271,3.1,3.1,85,0.00,,,0.00,TxWx,2013-12-04 09:27:00,
2013-12-04 04:28:00,68.8,64.0,29.99,West,271,3.1,3.1,85,0.00,,,0.00,TxWx,2013-12-04 09:28:00,
2013-12-04 04:29:00,68.7,64.0,30.00,West,271,3.1,3.1,85,0.00,,,0.00,TxWx,2013-12-04 09:29:00,
2013-12-04 04:31:00,68.7,64.0,29.99,West,271,3.1,3.1,85,0.00,,,0.00,TxWx,2013-12-04 09:31:00,
2013-12-04 04:32:00,68.7,64.0,30.00,West,271,3.7,3.7,85,0.00,,,0.00,TxWx,2013-12-04 09:32:00,
2013-12-04 04:33:00,68.7,64.0,30.00,West,271,3.1,3.1,85,0.00,,,0.00,TxWx,2013-12-04 09:33:00,
2013-12-04 04:34:00,68.8,64.0,30.00,West,271,3.7,3.7,85,0.00,,,0.00,TxWx,2013-12-04 09:34:00,
2013-12-04 04:35:00,68.8,64.0,30.00,West,271,3.7,3.7,85,0.00,,,0.00,TxWx,2013-12-04 09:35:00,
2013-12-04 04:36:00,68.8,64.0,29.99,West,271,3.7,3.7,85,0.00,,,0.00,TxWx,2013-12-04 09:36:00,
2013-12-04 04:37:00,68.8,64.0,29.99,West,271,3.7,3.7,85,0.00,,,0.00,TxWx,2013-12-04 09:37:00,
2013-12-04 04:38:00,68.7,64.0,30.00,West,271,3.7,3.7,85,0.00,,,0.00,TxWx,2013-12-04 09:38:00,
2013-12-04 04:39:00,68.8,64.0,30.00,West,271,3.7,4.3,85,0.00,,,0.00,TxWx,2013-12-04 09:39:00,
2013-12-04 04:41:00,68.7,64.0,29.99,West,271,2.5,3.1,85,0.00,,,0.00,TxWx,2013-12-04 09:41:00,
2013-12-04 04:42:00,68.7,64.0,29.99,West,271,3.1,3.7,85,0.00,,,0.00,TxWx,2013-12-04 09:42:00,
2013-12-04 04:43:00,68.7,64.0,29.99,West,271,3.1,3.1,85,0.00,,,0.00,TxWx,2013-12-04 09:43:00,
2013-12-04 04:44:00,68.7,64.0,29.99,West,271,3.1,3.1,85,0.00,,,0.00,TxWx,2013-12-04 09:44:00,
2013-12-04 04:46:00,68.7,64.0,29.99,West,271,3.7,3.7,85,0.00,,,0.00,TxWx,2013-12-04 09:46:00,
2013-12-04 04:47:00,68.7,64.0,29.99,West,271,3.7,3.7,85,0.00,,,0.00,TxWx,2013-12-04 09:47:00,
2013-12-04 04:48:00,68.6,64.0,30.00,West,271,3.1,3.7,85,0.00,,,0.00,TxWx,2013-12-04 09:48:00,
2013-12-04 04:49:00,68.6,64.0,30.00,West,271,3.1,3.7,85,0.00,,,0.00,TxWx,2013-12-04 09:49:00,
2013-12-04 04:51:00,68.6,64.0,30.00,West,271,3.1,3.7,85,0.00,,,0.00,TxWx,2013-12-04 09:51:00,
2013-12-04 04:52:00,68.7,64.0,30.00,West,271,3.7,3.7,85,0.00,,,0.00,TxWx,2013-12-04 09:52:00,
2013-12-04 04:53:00,68.6,64.0,30.00,West,271,3.1,3.7,85,0.00,,,0.00,TxWx,2013-12-04 09:53:00,
2013-12-04 04:54:00,68.7,64.0,30.00,West,271,3.1,3.1,85,0.00,,,0.00,TxWx,2013-12-04 09:54:00,
2013-12-04 04:56:00,68.5,64.0,30.00,West,271,3.1,3.1,85,0.00,,,0.00,TxWx,2013-12-04 09:56:00,
2013-12-04 04:57:00,68.5,64.0,30.00,West,271,3.7,3.7,85,0.00,,,0.00,TxWx,2013-12-04 09:57:00,
2013-12-04 04:58:00,68.5,64.0,30.00,West,271,3.1,3.1,85,0.00,,,0.00,TxWx,2013-12-04 09:58:00,
2013-12-04 04:59:00,68.5,64.0,30.00,West,271,3.7,3.7,85,0.00,,,0.00,TxWx,2013-12-04 09:59:00,
2013-12-04 05:01:00,68.5,63.0,29.99,West,271,3.1,3.1,85,0.00,,,0.00,TxWx,2013-12-04 10:01:00,
2013-12-04 05:02:00,68.5,63.0,29.99,West,271,3.1,3.7,85,0.00,,,0.00,TxWx,2013-12-04 10:02:00,
2013-12-04 05:03:00,68.5,63.0,29.99,West,271,3.1,3.7,85,0.00,,,0.00,TxWx,2013-12-04 10:03:00,
2013-12-04 05:04:00,68.5,64.0,29.99,West,271,3.1,3.7,85,0.00,,,0.00,TxWx,2013-12-04 10:04:00,
2013-12-04 05:05:00,68.5,64.0,29.99,West,271,3.7,4.3,85,0.00,,,0.00,TxWx,2013-12-04 10:05:00,
2013-12-04 05:06:00,68.6,64.0,29.99,West,271,3.1,3.1,85,0.00,,,0.00,TxWx,2013-12-04 10:06:00,
2013-12-04 05:07:00,68.6,64.0,30.00,West,271,2.5,3.1,85,0.00,,,0.00,TxWx,2013-12-04 10:07:00,
2013-12-04 05:09:00,68.6,64.0,30.00,West,271,3.1,3.1,85,0.00,,,0.00,TxWx,2013-12-04 10:09:00,
2013-12-04 05:10:00,68.6,64.0,30.00,West,271,3.1,3.7,85,0.00,,,0.00,TxWx,2013-12-04 10:10:00,
2013-12-04 05:11:00,68.7,64.0,29.99,West,271,3.1,3.1,85,0.00,,,0.00,TxWx,2013-12-04 10:11:00,
2013-12-04 05:13:00,68.7,64.0,30.00,West,271,3.1,3.1,85,0.00,,,0.00,TxWx,2013-12-04 10:13:00,
2013-12-04 05:14:00,68.8,64.0,29.99,West,271,3.1,3.1,85,0.00,,,0.00,TxWx,2013-12-04 10:14:00,
2013-12-04 05:15:00,68.8,64.0,30.00,West,271,3.7,3.7,85,0.00,,,0.00,TxWx,2013-12-04 10:15:00,
2013-12-04 05:16:00,68.8,64.0,29.99,WSW,249,5.0,5.0,84,0.00,,,0.00,TxWx,2013-12-04 10:16:00,
2013-12-04 05:17:00,68.9,64.0,29.99,West,271,3.7,4.3,84,0.00,,,0.00,TxWx,2013-12-04 10:17:00,
2013-12-04 05:18:00,68.9,64.0,30.00,West,271,3.1,3.1,84,0.00,,,0.00,TxWx,2013-12-04 10:18:00,
2013-12-04 05:19:00,69.0,64.0,30.00,West,271,3.1,3.7,84,0.00,,,0.00,TxWx,2013-12-04 10:19:00,
2013-12-04 05:20:00,69.0,64.0,30.00,West,271,3.1,3.1,84,0.00,,,0.00,TxWx,2013-12-04 10:20:00,
2013-12-04 05:21:00,69.0,64.0,30.00,WSW,249,3.1,3.7,84,0.00,,,0.00,TxWx,2013-12-04 10:21:00,
2013-12-04 05:22:00,69.0,64.0,30.00,West,271,3.7,3.7,84,0.00,,,0.00,TxWx,2013-12-04 10:22:00,
2013-12-04 05:23:00,69.0,64.0,30.00,West,271,3.7,3.7,84,0.00,,,0.00,TxWx,2013-12-04 10:23:00,
2013-12-04 05:24:00,68.9,64.0,30.00,WSW,249,4.3,4.3,84,0.00,,,0.00,TxWx,2013-12-04 10:24:00,
2013-12-04 05:25:00,69.0,64.0,30.00,WSW,249,3.1,3.1,84,0.00,,,0.00,TxWx,2013-12-04 10:25:00,
2013-12-04 05:26:00,68.9,64.0,30.00,WSW,249,3.1,3.1,84,0.00,,,0.00,TxWx,2013-12-04 10:26:00,
2013-12-04 05:27:00,68.9,64.0,30.00,WSW,249,3.7,3.7,84,0.00,,,0.00,TxWx,2013-12-04 10:27:00,
2013-12-04 05:28:00,68.9,64.0,30.00,WSW,249,2.5,3.1,84,0.00,,,0.00,TxWx,2013-12-04 10:28:00,
2013-12-04 05:29:00,68.9,64.0,30.00,WSW,249,2.5,2.5,84,0.00,,,0.00,TxWx,2013-12-04 10:29:00,
2013-12-04 05:30:00,68.9,64.0,30.00,WSW,249,3.7,3.7,84,0.00,,,0.00,TxWx,2013-12-04 10:30:00,
2013-12-04 05:32:00,69.0,64.0,30.00,WSW,249,3.7,3.7,84,0.00,,,0.00,TxWx,2013-12-04 10:32:00,
2013-12-04 05:33:00,69.0,64.0,30.00,West,271,3.1,3.1,84,0.00,,,0.00,TxWx,2013-12-04 10:33:00,
2013-12-04 05:34:00,68.9,64.0,30.00,West,271,4.3,4.3,84,0.00,,,0.00,TxWx,2013-12-04 10:34:00,
2013-12-04 05:35:00,69.0,64.0,30.00,West,271,3.7,3.7,84,0.00,,,0.00,TxWx,2013-12-04 10:35:00,
2013-12-04 05:37:00,69.0,64.0,30.00,West,271,3.1,3.7,84,0.00,,,0.00,TxWx,2013-12-04 10:37:00,
2013-12-04 05:38:00,69.1,64.0,30.00,West,271,3.7,3.7,84,0.00,,,0.00,TxWx,2013-12-04 10:38:00,
2013-12-04 05:40:00,68.9,64.0,30.01,West,271,3.1,3.1,84,0.00,,,0.00,TxWx,2013-12-04 10:40:00,
2013-12-04 05:41:00,68.9,64.0,30.01,West,271,3.1,3.1,84,0.00,,,0.00,TxWx,2013-12-04 10:41:00,
2013-12-04 05:42:00,68.9,64.0,30.01,WNW,294,3.7,3.7,85,0.00,,,0.00,TxWx,2013-12-04 10:42:00,
2013-12-04 05:43:00,68.8,64.0,30.01,WNW,294,3.1,3.1,84,0.00,,,0.00,TxWx,2013-12-04 10:43:00,
2013-12-04 05:46:00,68.7,64.0,30.01,WNW,294,3.7,3.7,84,0.00,,,0.00,TxWx,2013-12-04 10:46:00,
2013-12-04 05:47:00,68.7,64.0,30.01,WNW,294,2.5,3.1,85,0.00,,,0.00,TxWx,2013-12-04 10:47:00,
2013-12-04 05:48:00,68.6,64.0,30.01,WNW,294,3.1,3.1,85,0.00,,,0.00,TxWx,2013-12-04 10:48:00,
2013-12-04 05:49:00,68.6,64.0,30.01,WNW,294,3.7,3.7,85,0.00,,,0.00,TxWx,2013-12-04 10:49:00,
2013-12-04 05:51:00,68.6,64.0,30.01,WNW,294,3.7,3.7,85,0.00,,,0.00,TxWx,2013-12-04 10:51:00,
2013-12-04 05:52:00,68.6,64.0,30.01,WNW,294,3.7,3.7,85,0.00,,,0.00,TxWx,2013-12-04 10:52:00,
2013-12-04 05:53:00,68.5,64.0,30.01,West,271,3.1,3.1,85,0.00,,,0.00,TxWx,2013-12-04 10:53:00,
2013-12-04 05:54:00,68.5,64.0,30.02,West,271,3.7,3.7,85,0.00,,,0.00,TxWx,2013-12-04 10:54:00,
2013-12-04 05:56:00,68.5,64.0,30.02,West,271,3.7,4.3,85,0.00,,,0.00,TxWx,2013-12-04 10:56:00,
2013-12-04 05:57:00,68.6,64.0,30.02,West,271,4.3,4.3,85,0.00,,,0.00,TxWx,2013-12-04 10:57:00,
2013-12-04 05:58:00,68.6,64.0,30.02,West,271,3.7,3.7,85,0.00,,,0.00,TxWx,2013-12-04 10:58:00,
2013-12-04 06:00:00,68.6,64.0,30.02,West,271,3.7,4.3,85,0.00,,,0.00,TxWx,2013-12-04 11:00:00,
2013-12-04 06:02:00,68.7,64.0,30.02,West,271,3.7,3.7,85,0.00,,,0.00,TxWx,2013-12-04 11:02:00,
2013-12-04 06:03:00,68.6,64.0,30.02,West,271,3.1,3.1,85,0.00,,,0.00,TxWx,2013-12-04 11:03:00,
2013-12-04 06:05:00,68.6,64.0,30.02,West,271,5.0,5.0,85,0.00,,,0.00,TxWx,2013-12-04 11:05:00,
2013-12-04 06:06:00,68.6,64.0,30.02,West,271,3.1,3.1,85,0.00,,,0.00,TxWx,2013-12-04 11:06:00,
2013-12-04 06:07:00,68.6,64.0,30.02,West,271,4.3,4.3,85,0.00,,,0.00,TxWx,2013-12-04 11:07:00,
2013-12-04 06:08:00,68.6,64.0,30.02,West,271,3.7,4.3,85,0.00,,,0.00,TxWx,2013-12-04 11:08:00,
2013-12-04 06:10:00,68.6,64.0,30.02,West,271,3.7,3.7,85,0.00,,,0.00,TxWx,2013-12-04 11:10:00,
2013-12-04 06:12:00,68.7,64.0,30.02,West,271,3.1,3.7,85,0.00,,,0.00,TxWx,2013-12-04 11:12:00,
2013-12-04 06:13:00,68.6,64.0,30.02,West,271,3.1,3.1,85,0.00,,,0.00,TxWx,2013-12-04 11:13:00,
2013-12-04 06:14:00,68.6,64.0,30.02,West,271,3.7,3.7,85,0.00,,,0.00,TxWx,2013-12-04 11:14:00,
2013-12-04 06:15:00,68.6,64.0,30.02,West,271,2.5,3.1,85,0.00,,,0.00,TxWx,2013-12-04 11:15:00,
2013-12-04 06:17:00,68.5,64.0,30.02,West,271,2.5,2.5,85,0.00,,,0.00,TxWx,2013-12-04 11:17:00,
2013-12-04 06:18:00,68.5,63.0,30.02,West,271,3.7,3.7,85,0.00,,,0.00,TxWx,2013-12-04 11:18:00,
2013-12-04 06:19:00,68.4,63.0,30.03,West,271,3.1,3.1,85,0.00,,,0.00,TxWx,2013-12-04 11:19:00,
2013-12-04 06:20:00,68.3,63.0,30.03,West,271,3.1,3.1,85,0.00,,,0.00,TxWx,2013-12-04 11:20:00,
2013-12-04 06:22:00,68.4,63.0,30.03,West,271,3.1,3.1,85,0.00,,,0.00,TxWx,2013-12-04 11:22:00,
2013-12-04 06:23:00,68.4,63.0,30.03,West,271,2.5,3.1,85,0.00,,,0.00,TxWx,2013-12-04 11:23:00,
2013-12-04 06:24:00,68.5,63.0,30.03,West,271,1.9,1.9,85,0.00,,,0.00,TxWx,2013-12-04 11:24:00,
2013-12-04 06:26:00,68.3,63.0,30.03,West,271,4.3,4.3,85,0.00,,,0.00,TxWx,2013-12-04 11:26:00,
2013-12-04 06:28:00,68.4,63.0,30.03,West,271,2.5,3.1,85,0.00,,,0.00,TxWx,2013-12-04 11:28:00,
2013-12-04 06:29:00,68.4,63.0,30.03,West,271,2.5,3.1,85,0.00,,,0.00,TxWx,2013-12-04 11:29:00,
2013-12-04 06:31:00,68.5,63.0,30.03,West,271,2.5,3.1,86,0.00,,,0.00,TxWx,2013-12-04 11:31:00,
2013-12-04 06:33:00,68.4,63.0,30.03,West,271,3.1,3.1,85,0.00,,,0.00,TxWx,2013-12-04 11:33:00,
2013-12-04 06:34:00,68.4,63.0,30.03,West,271,3.1,3.1,86,0.00,,,0.00,TxWx,2013-12-04 11:34:00,
2013-12-04 06:37:00,68.3,63.0,30.03,West,271,3.1,3.7,85,0.00,,,0.00,TxWx,2013-12-04 11:37:00,
2013-12-04 06:38:00,68.4,63.0,30.03,West,271,2.5,3.1,86,0.00,,,0.00,TxWx,2013-12-04 11:38:00,
2013-12-04 06:39:00,68.5,63.0,30.03,West,271,2.5,2.5,86,0.00,,,0.00,TxWx,2013-12-04 11:39:00,
2013-12-04 06:40:00,68.4,63.0,30.03,West,271,2.5,3.1,86,0.00,,,0.00,TxWx,2013-12-04 11:40:00,
2013-12-04 06:42:00,68.5,63.0,30.03,West,271,3.1,3.1,86,0.00,,,0.00,TxWx,2013-12-04 11:42:00,
2013-12-04 06:43:00,68.4,63.0,30.04,West,271,3.7,3.7,85,0.00,,,0.00,TxWx,2013-12-04 11:43:00,
2013-12-04 06:44:00,68.5,63.0,30.03,West,271,3.7,3.7,86,0.00,,,0.00,TxWx,2013-12-04 11:44:00,
2013-12-04 06:47:00,68.4,63.0,30.03,West,271,3.7,3.7,86,0.00,,,0.00,TxWx,2013-12-04 11:47:00,
2013-12-04 06:48:00,68.4,63.0,30.03,West,271,3.1,3.1,86,0.00,,,0.00,TxWx,2013-12-04 11:48:00,
2013-12-04 06:49:00,68.5,64.0,30.03,West,271,3.1,3.1,86,0.00,,,0.00,TxWx,2013-12-04 11:49:00,
2013-12-04 06:50:00,68.5,64.0,30.03,West,271,2.5,2.5,86,0.00,,,0.00,TxWx,2013-12-04 11:50:00,
2013-12-04 06:52:00,68.5,64.0,30.03,West,271,3.1,3.1,86,0.00,,,0.00,TxWx,2013-12-04 11:52:00,
2013-12-04 06:53:00,68.4,63.0,30.04,West,271,2.5,2.5,86,0.00,,,0.00,TxWx,2013-12-04 11:53:00,
2013-12-04 06:54:00,68.5,63.0,30.04,West,271,1.9,2.5,86,0.00,,,0.00,TxWx,2013-12-04 11:54:00,
2013-12-04 06:55:00,68.3,63.0,30.03,West,271,2.5,3.1,86,0.00,,,0.00,TxWx,2013-12-04 11:55:00,
2013-12-04 06:56:00,68.4,63.0,30.04,West,271,2.5,3.1,86,0.00,,,0.00,TxWx,2013-12-04 11:56:00,
2013-12-04 06:58:00,68.5,63.0,30.04,West,271,2.5,2.5,86,0.00,,,0.00,TxWx,2013-12-04 11:58:00,
2013-12-04 06:59:00,68.5,63.0,30.04,West,271,1.9,1.9,86,0.00,,,0.00,TxWx,2013-12-04 11:59:00,
2013-12-04 07:00:00,68.4,63.0,30.04,West,271,2.5,2.5,86,0.00,,,0.00,TxWx,2013-12-04 12:00:00,
2013-12-04 07:03:00,68.6,64.0,30.04,West,271,2.5,3.1,86,0.00,,,0.00,TxWx,2013-12-04 12:03:00,
2013-12-04 07:04:00,68.6,64.0,30.04,West,271,3.1,3.1,86,0.00,,,0.00,TxWx,2013-12-04 12:04:00,
2013-12-04 07:05:00,68.5,64.0,30.04,West,271,3.1,3.1,86,0.00,,,0.00,TxWx,2013-12-04 12:05:00,
2013-12-04 07:08:00,68.4,63.0,30.04,West,271,3.1,3.1,86,0.00,,,0.00,TxWx,2013-12-04 12:08:00,
2013-12-04 07:09:00,68.5,63.0,30.04,West,271,2.5,3.1,86,0.00,,,0.00,TxWx,2013-12-04 12:09:00,
2013-12-04 07:10:00,68.5,63.0,30.04,West,271,3.1,3.1,86,0.00,,,0.00,TxWx,2013-12-04 12:10:00,
2013-12-04 07:11:00,68.5,63.0,30.04,West,271,3.1,3.1,86,0.00,,,0.00,TxWx,2013-12-04 12:11:00,
2013-12-04 07:14:00,68.5,64.0,30.04,West,271,2.5,2.5,86,0.00,,,0.00,TxWx,2013-12-04 12:14:00,
2013-12-04 07:16:00,68.5,63.0,30.04,West,271,2.5,2.5,86,0.00,,,0.00,TxWx,2013-12-04 12:16:00,
2013-12-04 07:19:00,68.4,63.0,30.04,West,271,2.5,2.5,86,0.00,,,0.00,TxWx,2013-12-04 12:19:00,
2013-12-04 07:20:00,68.4,63.0,30.04,West,271,3.1,3.1,86,0.00,,,0.00,TxWx,2013-12-04 12:20:00,
2013-12-04 07:21:00,68.5,63.0,30.04,West,271,2.5,2.5,86,0.00,,,0.00,TxWx,2013-12-04 12:21:00,
2013-12-04 07:24:00,68.4,63.0,30.05,West,271,3.1,3.1,86,0.00,,,0.00,TxWx,2013-12-04 12:24:00,
2013-12-04 07:25:00,68.4,63.0,30.05,West,271,3.1,3.1,86,0.00,,,0.00,TxWx,2013-12-04 12:25:00,
2013-12-04 07:26:00,68.4,63.0,30.05,West,271,3.1,3.1,86,0.00,,,0.00,TxWx,2013-12-04 12:26:00,
2013-12-04 07:30:00,68.4,63.0,30.05,West,271,2.5,2.5,85,0.00,,,0.00,TxWx,2013-12-04 12:30:00,
2013-12-04 07:31:00,68.4,63.0,30.05,West,271,3.1,3.1,85,0.00,,,0.00,TxWx,2013-12-04 12:31:00,
2013-12-04 07:35:00,68.5,64.0,30.05,West,271,3.7,3.7,85,0.00,,,0.00,TxWx,2013-12-04 12:35:00,
2013-12-04 07:36:00,68.6,64.0,30.05,West,271,2.5,3.1,86,0.00,,,0.00,TxWx,2013-12-04 12:36:00,
2013-12-04 07:37:00,68.6,64.0,30.05,West,271,3.1,3.1,86,0.00,,,0.00,TxWx,2013-12-04 12:37:00,
2013-12-04 07:40:00,68.5,63.0,30.05,West,271,2.5,3.1,86,0.00,,,0.00,TxWx,2013-12-04 12:40:00,
2013-12-04 07:41:00,68.5,63.0,30.05,West,271,3.1,3.1,85,0.00,,,0.00,TxWx,2013-12-04 12:41:00,
2013-12-04 07:42:00,68.5,64.0,30.05,West,271,2.5,2.5,86,0.00,,,0.00,TxWx,2013-12-04 12:42:00,
2013-12-04 07:45:00,68.6,64.0,30.05,West,271,2.5,2.5,86,0.00,,,0.00,TxWx,2013-12-04 12:45:00,
2013-12-04 07:46:00,68.5,64.0,30.05,West,271,3.7,3.7,86,0.00,,,0.00,TxWx,2013-12-04 12:46:00,
2013-12-04 07:47:00,68.5,63.0,30.05,West,271,3.1,3.1,86,0.00,,,0.00,TxWx,2013-12-04 12:47:00,
2013-12-04 07:48:00,68.5,63.0,30.05,West,271,3.1,3.1,86,0.00,,,0.00,TxWx,2013-12-04 12:48:00,
2013-12-04 07:50:00,68.5,63.0,30.06,West,271,2.5,2.5,86,0.00,,,0.00,TxWx,2013-12-04 12:50:00,
2013-12-04 07:51:00,68.5,63.0,30.05,West,271,3.1,3.1,86,0.00,,,0.00,TxWx,2013-12-04 12:51:00,
2013-12-04 07:52:00,68.5,63.0,30.06,West,271,3.1,3.1,86,0.00,,,0.00,TxWx,2013-12-04 12:52:00,
2013-12-04 07:53:00,68.5,63.0,30.05,West,271,2.5,3.1,86,0.00,,,0.00,TxWx,2013-12-04 12:53:00,
2013-12-04 07:55:00,68.6,64.0,30.16,West,271,3.1,3.7,86,0.00,,,0.00,TxWx,2013-12-04 12:55:00,
2013-12-04 07:56:00,68.7,64.0,30.15,West,271,3.7,3.7,86,0.00,,,0.00,TxWx,2013-12-04 12:56:00,
2013-12-04 07:57:00,68.6,64.0,30.15,West,271,3.7,4.3,86,0.00,,,0.00,TxWx,2013-12-04 12:57:00,
2013-12-04 07:59:00,68.8,64.0,30.05,West,271,3.1,3.1,86,0.00,,,0.00,TxWx,2013-12-04 12:59:00,
2013-12-04 08:01:00,68.9,64.0,30.05,West,271,3.1,3.1,86,0.00,,,0.00,TxWx,2013-12-04 13:01:00,
2013-12-04 08:02:00,69.0,64.0,30.05,West,271,3.1,3.1,86,0.00,,,0.00,TxWx,2013-12-04 13:02:00,
2013-12-04 08:05:00,69.1,64.0,30.05,West,271,3.1,3.1,86,0.00,,,0.00,TxWx,2013-12-04 13:05:00,
2013-12-04 08:06:00,69.2,64.0,30.06,West,271,3.1,3.1,86,0.00,,,0.00,TxWx,2013-12-04 13:06:00,
2013-12-04 08:07:00,69.2,64.0,30.06,West,271,3.1,3.1,85,0.00,,,0.00,TxWx,2013-12-04 13:07:00,
2013-12-04 08:08:00,69.3,64.0,30.05,West,271,2.5,3.1,85,0.00,,,0.00,TxWx,2013-12-04 13:08:00,
2013-12-04 08:10:00,69.4,64.0,30.06,West,271,3.1,3.7,85,0.00,,,0.00,TxWx,2013-12-04 13:10:00,
2013-12-04 08:12:00,69.5,64.0,30.06,West,271,3.1,3.1,85,0.00,,,0.00,TxWx,2013-12-04 13:12:00,
2013-12-04 08:13:00,69.6,65.0,30.06,West,271,3.1,3.1,85,0.00,,,0.00,TxWx,2013-12-04 13:13:00,
2013-12-04 08:15:00,69.7,65.0,30.06,West,271,3.1,3.1,84,0.00,,,0.00,TxWx,2013-12-04 13:15:00,
2013-12-04 08:17:00,69.8,65.0,30.06,West,271,3.1,3.7,84,0.00,,,0.00,TxWx,2013-12-04 13:17:00,
2013-12-04 08:18:00,69.9,65.0,30.06,West,271,2.5,2.5,84,0.00,,,0.00,TxWx,2013-12-04 13:18:00,
2013-12-04 08:20:00,70.2,65.0,30.06,West,271,3.1,3.1,83,0.00,,,0.00,TxWx,2013-12-04 13:20:00,
2013-12-04 08:22:00,70.5,65.0,30.06,WNW,294,3.7,3.7,83,0.00,,,0.00,TxWx,2013-12-04 13:22:00,
2013-12-04 08:23:00,70.6,65.0,30.06,WNW,294,3.1,3.1,83,0.00,,,0.00,TxWx,2013-12-04 13:23:00,
2013-12-04 08:24:00,70.7,65.0,30.06,WNW,294,1.9,2.5,83,0.00,,,0.00,TxWx,2013-12-04 13:24:00,
2013-12-04 08:27:00,70.9,65.0,30.06,WNW,294,1.9,2.5,82,0.00,,,0.00,TxWx,2013-12-04 13:27:00,
2013-12-04 08:28:00,71.0,65.0,30.06,WNW,294,1.9,2.5,82,0.00,,,0.00,TxWx,2013-12-04 13:28:00,
2013-12-04 08:30:00,71.1,65.0,30.06,WNW,294,3.1,3.1,81,0.00,,,0.00,TxWx,2013-12-04 13:30:00,
2013-12-04 08:32:00,71.4,65.0,30.07,WNW,294,2.5,3.1,81,0.00,,,0.00,TxWx,2013-12-04 13:32:00,
2013-12-04 08:33:00,71.4,65.0,30.06,WNW,294,2.5,2.5,81,0.00,,,0.00,TxWx,2013-12-04 13:33:00,
2013-12-04 08:35:00,71.7,65.0,30.07,West,271,2.5,3.1,80,0.00,,,0.00,TxWx,2013-12-04 13:35:00,
2013-12-04 08:38:00,72.0,65.0,30.07,WSW,249,3.7,3.7,80,0.00,,,0.00,TxWx,2013-12-04 13:38:00,
2013-12-04 08:39:00,72.2,65.0,30.06,WSW,249,3.7,3.7,80,0.00,,,0.00,TxWx,2013-12-04 13:39:00,
2013-12-04 08:40:00,72.3,65.0,30.07,WSW,249,2.5,3.1,79,0.00,,,0.00,TxWx,2013-12-04 13:40:00,
2013-12-04 08:43:00,72.8,66.0,30.07,WSW,249,3.1,3.1,78,0.00,,,0.00,TxWx,2013-12-04 13:43:00,
2013-12-04 08:44:00,72.9,66.0,30.07,West,271,3.7,4.3,78,0.00,,,0.00,TxWx,2013-12-04 13:44:00,
2013-12-04 08:45:00,73.1,65.0,30.07,WSW,249,2.5,3.1,77,0.00,,,0.00,TxWx,2013-12-04 13:45:00,
2013-12-04 08:48:00,73.7,66.0,30.07,WSW,249,2.5,2.5,77,0.00,,,0.00,TxWx,2013-12-04 13:48:00,
2013-12-04 08:49:00,73.7,66.0,30.07,WSW,249,2.5,2.5,77,0.00,,,0.00,TxWx,2013-12-04 13:49:00,
2013-12-04 08:50:00,73.9,66.0,30.07,WSW,249,2.5,2.5,77,0.00,,,0.00,TxWx,2013-12-04 13:50:00,
2013-12-04 08:53:00,74.2,66.0,30.18,WSW,249,2.5,2.5,77,0.00,,,0.00,TxWx,2013-12-04 13:53:00,
2013-12-04 08:54:00,74.2,66.0,30.07,WSW,249,3.7,3.7,76,0.00,,,0.00,TxWx,2013-12-04 13:54:00,
2013-12-04 08:55:00,74.3,66.0,30.07,WSW,249,1.9,2.5,76,0.00,,,0.00,TxWx,2013-12-04 13:55:00,
2013-12-04 08:56:00,74.5,67.0,30.07,WSW,249,1.9,1.9,76,0.00,,,0.00,TxWx,2013-12-04 13:56:00,
2013-12-04 08:59:00,74.7,67.0,30.07,WSW,249,3.1,3.1,76,0.00,,,0.00,TxWx,2013-12-04 13:59:00,
2013-12-04 09:00:00,74.8,66.0,30.07,WSW,249,2.5,2.5,75,0.00,,,0.00,TxWx,2013-12-04 14:00:00,
2013-12-04 09:01:00,74.8,66.0,30.07,WSW,249,3.7,4.3,74,0.00,,,0.00,TxWx,2013-12-04 14:01:00,
2013-12-04 09:04:00,75.0,66.0,30.07,WSW,249,4.3,4.3,73,0.00,,,0.00,TxWx,2013-12-04 14:04:00,
2013-12-04 09:05:00,75.2,66.0,30.07,WSW,249,2.5,2.5,73,0.00,,,0.00,TxWx,2013-12-04 14:05:00,
2013-12-04 09:06:00,75.2,66.0,30.08,WSW,249,2.5,2.5,73,0.00,,,0.00,TxWx,2013-12-04 14:06:00,
2013-12-04 09:09:00,75.5,66.0,30.08,WSW,249,3.1,3.1,73,0.00,,,0.00,TxWx,2013-12-04 14:09:00,
2013-12-04 09:10:00,75.5,66.0,30.08,WSW,249,1.9,2.5,73,0.00,,,0.00,TxWx,2013-12-04 14:10:00,
2013-12-04 09:11:00,75.6,66.0,30.08,WSW,249,3.1,3.1,72,0.00,,,0.00,TxWx,2013-12-04 14:11:00,
2013-12-04 09:12:00,75.7,66.0,30.08,WSW,249,3.7,3.7,72,0.00,,,0.00,TxWx,2013-12-04 14:12:00,
2013-12-04 09:14:00,75.8,66.0,30.08,WSW,249,1.9,1.9,72,0.00,,,0.00,TxWx,2013-12-04 14:14:00,
2013-12-04 09:15:00,76.0,66.0,30.08,WSW,249,1.2,1.9,72,0.00,,,0.00,TxWx,2013-12-04 14:15:00,
2013-12-04 09:16:00,76.2,66.0,30.08,WSW,249,0.6,1.2,73,0.00,,,0.00,TxWx,2013-12-04 14:16:00,
2013-12-04 09:17:00,76.3,66.0,30.08,WSW,249,1.9,1.9,73,0.00,,,0.00,TxWx,2013-12-04 14:17:00,
2013-12-04 09:19:00,76.2,66.0,30.08,WSW,249,3.7,3.7,72,0.00,,,0.00,TxWx,2013-12-04 14:19:00,
2013-12-04 09:20:00,76.3,66.0,30.08,SW,226,1.9,1.9,72,0.00,,,0.00,TxWx,2013-12-04 14:20:00,
2013-12-04 09:21:00,76.4,66.0,30.08,WSW,249,1.2,1.9,72,0.00,,,0.00,TxWx,2013-12-04 14:21:00,
2013-12-04 09:22:00,76.5,66.0,30.08,WSW,249,1.2,1.2,72,0.00,,,0.00,TxWx,2013-12-04 14:22:00,
2013-12-04 09:25:00,76.8,67.0,30.09,SW,226,1.9,1.9,72,0.00,,,0.00,TxWx,2013-12-04 14:25:00,
2013-12-04 09:26:00,76.8,67.0,30.09,SW,226,1.2,1.9,71,0.00,,,0.00,TxWx,2013-12-04 14:26:00,
2013-12-04 09:27:00,76.9,67.0,30.09,WSW,249,1.9,2.5,71,0.00,,,0.00,TxWx,2013-12-04 14:27:00,
2013-12-04 09:30:00,77.4,67.0,30.09,WSW,249,1.2,1.9,71,0.00,,,0.00,TxWx,2013-12-04 14:30:00,
2013-12-04 09:32:00,77.3,66.0,30.09,WSW,249,1.2,1.9,70,0.00,,,0.00,TxWx,2013-12-04 14:32:00,
2013-12-04 09:33:00,77.3,66.0,30.09,WSW,249,1.9,2.5,70,0.00,,,0.00,TxWx,2013-12-04 14:33:00,
2013-12-04 09:35:00,77.3,66.0,30.09,West,271,1.2,1.2,70,0.00,,,0.00,TxWx,2013-12-04 14:35:00,
2013-12-04 09:36:00,77.4,66.0,30.09,SW,226,1.9,1.9,70,0.00,,,0.00,TxWx,2013-12-04 14:36:00,
2013-12-04 09:37:00,77.4,66.0,30.09,WSW,249,3.1,3.1,70,0.00,,,0.00,TxWx,2013-12-04 14:37:00,
2013-12-04 09:38:00,77.2,66.0,30.09,SSW,204,3.1,3.7,69,0.00,,,0.00,TxWx,2013-12-04 14:38:00,
2013-12-04 09:39:00,77.4,66.0,30.09,WSW,249,2.5,3.1,69,0.00,,,0.00,TxWx,2013-12-04 14:39:00,
2013-12-04 09:40:00,77.4,66.0,30.09,SW,226,1.2,1.9,69,0.00,,,0.00,TxWx,2013-12-04 14:40:00,
2013-12-04 09:41:00,77.6,67.0,30.09,WSW,249,1.9,1.9,69,0.00,,,0.00,TxWx,2013-12-04 14:41:00,
2013-12-04 09:42:00,77.7,67.0,30.09,WSW,249,1.9,1.9,70,0.00,,,0.00,TxWx,2013-12-04 14:42:00,
2013-12-04 09:43:00,77.6,67.0,30.09,WSW,249,1.9,1.9,69,0.00,,,0.00,TxWx,2013-12-04 14:43:00,
2013-12-04 09:45:00,77.8,67.0,30.09,WSW,249,1.2,1.2,69,0.00,,,0.00,TxWx,2013-12-04 14:45:00,
2013-12-04 09:46:00,77.8,67.0,30.09,WSW,249,2.5,2.5,69,0.00,,,0.00,TxWx,2013-12-04 14:46:00,
2013-12-04 09:47:00,77.8,67.0,30.09,WSW,249,2.5,3.1,69,0.00,,,0.00,TxWx,2013-12-04 14:47:00,
2013-12-04 09:48:00,77.9,67.0,30.21,SW,226,1.2,1.2,69,0.00,,,0.00,TxWx,2013-12-04 14:48:00,
2013-12-04 09:49:00,77.8,67.0,30.09,WNW,294,1.9,1.9,69,0.00,,,0.00,TxWx,2013-12-04 14:49:00,
2013-12-04 09:50:00,77.9,67.0,30.09,SSW,204,1.9,1.9,69,0.00,,,0.00,TxWx,2013-12-04 14:50:00,
2013-12-04 09:51:00,77.9,67.0,30.09,SW,226,2.5,2.5,69,0.00,,,0.00,TxWx,2013-12-04 14:51:00,
2013-12-04 09:53:00,77.8,67.0,30.09,WSW,249,1.9,1.9,68,0.00,,,0.00,TxWx,2013-12-04 14:53:00,
2013-12-04 09:54:00,78.2,67.0,30.09,WSW,249,0.6,0.6,68,0.00,,,0.00,TxWx,2013-12-04 14:54:00,
2013-12-04 09:55:00,78.5,67.0,30.09,WSW,249,0.6,0.6,69,0.00,,,0.00,TxWx,2013-12-04 14:55:00,
2013-12-04 09:56:00,78.5,68.0,30.09,WSW,249,0.6,0.6,69,0.00,,,0.00,TxWx,2013-12-04 14:56:00,
2013-12-04 09:58:00,78.5,67.0,30.09,SSE,159,0.6,0.6,68,0.00,,,0.00,TxWx,2013-12-04 14:58:00,
2013-12-04 09:59:00,78.4,66.0,30.09,SSE,159,1.9,1.9,67,0.00,,,0.00,TxWx,2013-12-04 14:59:00,
2013-12-04 10:01:00,78.6,67.0,30.09,SSE,159,3.1,3.7,68,0.00,,,0.00,TxWx,2013-12-04 15:01:00,
2013-12-04 10:02:00,78.8,67.0,30.09,SSW,204,1.9,1.9,68,0.00,,,0.00,TxWx,2013-12-04 15:02:00,
2013-12-04 10:04:00,78.7,67.0,30.09,SE,136,2.5,2.5,67,0.00,,,0.00,TxWx,2013-12-04 15:04:00,
2013-12-04 10:06:00,78.4,65.0,30.09,SSE,159,4.3,4.3,66,0.00,,,0.00,TxWx,2013-12-04 15:06:00,
2013-12-04 10:07:00,78.5,66.0,30.09,SE,136,5.0,5.0,66,0.00,,,0.00,TxWx,2013-12-04 15:07:00,
2013-12-04 10:09:00,78.7,67.0,30.09,ESE,114,1.9,1.9,66,0.00,,,0.00,TxWx,2013-12-04 15:09:00,
2013-12-04 10:10:00,78.9,67.0,30.09,ESE,114,1.2,1.2,66,0.00,,,0.00,TxWx,2013-12-04 15:10:00,
2013-12-04 10:11:00,79.5,67.0,30.09,SE,136,3.1,3.1,67,0.00,,,0.00,TxWx,2013-12-04 15:11:00,
2013-12-04 10:12:00,79.5,67.0,30.09,SSE,159,4.3,4.3,67,0.00,,,0.00,TxWx,2013-12-04 15:12:00,
2013-12-04 10:14:00,79.1,66.0,30.09,SSE,159,5.0,5.0,65,0.00,,,0.00,TxWx,2013-12-04 15:14:00,
2013-12-04 10:15:00,79.1,66.0,30.09,SSE,159,3.7,3.7,65,0.00,,,0.00,TxWx,2013-12-04 15:15:00,
2013-12-04 10:17:00,79.0,66.0,30.09,SE,136,2.5,2.5,65,0.00,,,0.00,TxWx,2013-12-04 15:17:00,
2013-12-04 10:19:00,79.1,66.0,30.09,SSE,159,3.1,4.3,65,0.00,,,0.00,TxWx,2013-12-04 15:19:00,
2013-12-04 10:20:00,79.0,66.0,30.09,SSE,159,4.3,4.3,65,0.00,,,0.00,TxWx,2013-12-04 15:20:00,
2013-12-04 10:22:00,78.9,66.0,30.09,SSE,159,3.7,4.3,65,0.00,,,0.00,TxWx,2013-12-04 15:22:00,
2013-12-04 10:23:00,78.8,66.0,30.09,SSE,159,5.0,5.0,65,0.00,,,0.00,TxWx,2013-12-04 15:23:00,
2013-12-04 10:25:00,78.9,66.0,30.09,SE,136,6.8,6.8,66,0.00,,,0.00,TxWx,2013-12-04 15:25:00,
2013-12-04 10:26:00,78.9,66.0,30.08,SE,136,3.7,4.3,66,0.00,,,0.00,TxWx,2013-12-04 15:26:00,
2013-12-04 10:27:00,78.8,66.0,30.09,SSE,159,6.2,6.2,66,0.00,,,0.00,TxWx,2013-12-04 15:27:00,
2013-12-04 10:28:00,78.7,66.0,30.09,SSE,159,7.4,7.4,66,0.00,,,0.00,TxWx,2013-12-04 15:28:00,
2013-12-04 10:30:00,78.4,65.0,30.09,SE,136,5.0,5.0,65,0.00,,,0.00,TxWx,2013-12-04 15:30:00,
2013-12-04 10:31:00,78.4,65.0,30.09,SE,136,4.3,4.3,65,0.00,,,0.00,TxWx,2013-12-04 15:31:00,
2013-12-04 10:32:00,78.8,66.0,30.09,SE,136,4.3,4.3,66,0.00,,,0.00,TxWx,2013-12-04 15:32:00,
2013-12-04 10:33:00,78.8,67.0,30.09,ESE,114,3.7,4.3,66,0.00,,,0.00,TxWx,2013-12-04 15:33:00,
2013-12-04 10:36:00,78.6,66.0,30.09,ESE,114,7.4,7.4,65,0.00,,,0.00,TxWx,2013-12-04 15:36:00,
2013-12-04 10:37:00,78.5,65.0,30.09,SSE,159,9.3,9.3,65,0.00,,,0.00,TxWx,2013-12-04 15:37:00,
2013-12-04 10:38:00,78.4,65.0,30.09,SSE,159,7.4,8.0,65,0.00,,,0.00,TxWx,2013-12-04 15:38:00,
2013-12-04 10:41:00,78.4,65.0,30.08,SSE,159,7.4,8.7,66,0.00,,,0.00,TxWx,2013-12-04 15:41:00,
2013-12-04 10:42:00,78.4,65.0,30.08,SSE,159,7.4,8.7,65,0.00,,,0.00,TxWx,2013-12-04 15:42:00,
2013-12-04 10:43:00,78.4,65.0,30.08,SSE,159,8.0,8.0,65,0.00,,,0.00,TxWx,2013-12-04 15:43:00,
2013-12-04 10:45:00,78.4,65.0,30.08,SE,136,6.2,7.4,65,0.00,,,0.00,TxWx,2013-12-04 15:45:00,
2013-12-04 10:46:00,78.5,66.0,30.08,SSE,159,6.8,7.4,66,0.00,,,0.00,TxWx,2013-12-04 15:46:00,
2013-12-04 10:47:00,78.4,65.0,30.09,SSE,159,5.6,5.6,66,0.00,,,0.00,TxWx,2013-12-04 15:47:00,
2013-12-04 10:48:00,78.5,67.0,30.09,SSE,159,6.8,6.8,66,0.00,,,0.00,TxWx,2013-12-04 15:48:00,
2013-12-04 10:50:00,78.3,66.0,30.09,SE,136,5.0,6.2,66,0.00,,,0.00,TxWx,2013-12-04 15:50:00,
2013-12-04 10:51:00,78.2,66.0,30.09,SE,136,5.6,6.8,67,0.00,,,0.00,TxWx,2013-12-04 15:51:00,
2013-12-04 10:53:00,77.9,66.0,30.09,SSE,159,8.7,8.7,67,0.00,,,0.00,TxWx,2013-12-04 15:53:00,
2013-12-04 10:54:00,77.8,66.0,30.08,SSE,159,6.8,7.4,67,0.00,,,0.00,TxWx,2013-12-04 15:54:00,
2013-12-04 10:55:00,77.8,66.0,30.08,SE,136,6.2,6.2,67,0.00,,,0.00,TxWx,2013-12-04 15:55:00,
2013-12-04 10:56:00,77.7,66.0,30.08,SE,136,5.0,5.6,67,0.00,,,0.00,TxWx,2013-12-04 15:56:00,
2013-12-04 10:58:00,77.7,66.0,30.08,SE,136,5.6,6.8,67,0.00,,,0.00,TxWx,2013-12-04 15:58:00,
2013-12-04 10:59:00,77.6,66.0,30.08,SE,136,6.8,6.8,67,0.00,,,0.00,TxWx,2013-12-04 15:59:00,
2013-12-04 11:00:00,77.6,66.0,30.08,South,181,9.3,9.3,67,0.00,,,0.00,TxWx,2013-12-04 16:00:00,
2013-12-04 11:01:00,77.7,66.0,30.08,SSE,159,4.3,4.3,68,0.00,,,0.00,TxWx,2013-12-04 16:01:00,
2013-12-04 11:04:00,77.9,67.0,30.08,South,181,5.0,5.0,68,0.00,,,0.00,TxWx,2013-12-04 16:04:00,
2013-12-04 11:05:00,78.0,67.0,30.08,South,181,2.5,2.5,68,0.00,,,0.00,TxWx,2013-12-04 16:05:00,
2013-12-04 11:06:00,77.8,66.0,30.08,SE,136,5.0,5.0,68,0.00,,,0.00,TxWx,2013-12-04 16:06:00,
2013-12-04 11:07:00,77.7,66.0,30.09,SE,136,3.7,3.7,67,0.00,,,0.00,TxWx,2013-12-04 16:07:00,
2013-12-04 11:09:00,77.8,67.0,30.08,East,91,5.0,7.4,68,0.00,,,0.00,TxWx,2013-12-04 16:09:00,
2013-12-04 11:10:00,77.8,66.0,30.08,South,181,4.3,5.0,68,0.00,,,0.00,TxWx,2013-12-04 16:10:00,
2013-12-04 11:11:00,78.0,67.0,30.09,SSW,204,5.0,5.6,68,0.00,,,0.00,TxWx,2013-12-04 16:11:00,
2013-12-04 11:12:00,78.1,67.0,30.08,SE,136,5.0,5.0,68,0.00,,,0.00,TxWx,2013-12-04 16:12:00,
2013-12-04 11:14:00,78.4,66.0,30.08,SE,136,3.7,3.7,68,0.00,,,0.00,TxWx,2013-12-04 16:14:00,
2013-12-04 11:15:00,78.3,66.0,30.08,SE,136,5.0,5.0,68,0.00,,,0.00,TxWx,2013-12-04 16:15:00,
2013-12-04 11:16:00,78.3,66.0,30.08,ESE,114,5.6,6.2,67,0.00,,,0.00,TxWx,2013-12-04 16:16:00,
2013-12-04 11:17:00,78.4,66.0,30.08,SSE,159,3.7,3.7,67,0.00,,,0.00,TxWx,2013-12-04 16:17:00,
2013-12-04 11:20:00,78.0,66.0,30.08,SW,226,3.1,3.1,66,0.00,,,0.00,TxWx,2013-12-04 16:20:00,
2013-12-04 11:21:00,77.9,66.0,30.08,SSE,159,6.2,6.8,66,0.00,,,0.00,TxWx,2013-12-04 16:21:00,
2013-12-04 11:22:00,77.9,66.0,30.08,SSE,159,5.0,5.6,66,0.00,,,0.00,TxWx,2013-12-04 16:22:00,
2013-12-04 11:25:00,77.8,66.0,30.08,ESE,114,5.6,5.6,67,0.00,,,0.00,TxWx,2013-12-04 16:25:00,
2013-12-04 11:27:00,77.7,66.0,30.08,SE,136,9.3,9.3,67,0.00,,,0.00,TxWx,2013-12-04 16:27:00,
2013-12-04 11:30:00,77.7,66.0,30.08,South,181,2.5,2.5,67,0.00,,,0.00,TxWx,2013-12-04 16:30:00,
2013-12-04 11:31:00,77.8,66.0,30.08,SSE,159,3.7,3.7,67,0.00,,,0.00,TxWx,2013-12-04 16:31:00,
2013-12-04 11:32:00,77.8,66.0,30.08,SE,136,5.0,5.0,67,0.00,,,0.00,TxWx,2013-12-04 16:32:00,
2013-12-04 11:35:00,77.7,66.0,30.07,SE,136,9.9,11.1,67,0.00,,,0.00,TxWx,2013-12-04 16:35:00,
2013-12-04 11:36:00,77.8,66.0,30.08,SSE,159,8.0,8.0,67,0.00,,,0.00,TxWx,2013-12-04 16:36:00,
2013-12-04 11:37:00,77.7,66.0,30.08,SSW,204,5.0,5.0,67,0.00,,,0.00,TxWx,2013-12-04 16:37:00,
2013-12-04 11:38:00,77.8,66.0,30.07,SSE,159,3.7,4.3,67,0.00,,,0.00,TxWx,2013-12-04 16:38:00,
2013-12-04 11:40:00,77.8,66.0,30.08,SSE,159,7.4,8.0,66,0.00,,,0.00,TxWx,2013-12-04 16:40:00,
2013-12-04 11:41:00,77.8,66.0,30.08,SSE,159,8.0,9.9,67,0.00,,,0.00,TxWx,2013-12-04 16:41:00,
2013-12-04 11:42:00,77.7,66.0,30.08,SSE,159,6.8,8.7,66,0.00,,,0.00,TxWx,2013-12-04 16:42:00,
2013-12-04 11:43:00,77.8,66.0,30.08,SSE,159,8.0,8.0,67,0.00,,,0.00,TxWx,2013-12-04 16:43:00,
2013-12-04 11:45:00,77.8,66.0,30.08,South,181,11.1,11.8,67,0.00,,,0.00,TxWx,2013-12-04 16:45:00,
2013-12-04 11:46:00,78.0,66.0,30.08,SE,136,5.0,5.0,68,0.00,,,0.00,TxWx,2013-12-04 16:46:00,
2013-12-04 11:47:00,78.0,66.0,30.08,South,181,6.2,6.2,67,0.00,,,0.00,TxWx,2013-12-04 16:47:00,
2013-12-04 11:48:00,77.9,66.0,30.07,SSE,159,9.3,9.3,67,0.00,,,0.00,TxWx,2013-12-04 16:48:00,
2013-12-04 11:50:00,78.0,66.0,30.07,SE,136,3.7,3.7,66,0.00,,,0.00,TxWx,2013-12-04 16:50:00,
2013-12-04 11:51:00,78.0,66.0,30.08,SE,136,8.7,8.7,67,0.00,,,0.00,TxWx,2013-12-04 16:51:00,
2013-12-04 11:52:00,77.8,65.0,30.07,SSE,159,6.2,6.8,66,0.00,,,0.00,TxWx,2013-12-04 16:52:00,
2013-12-04 11:53:00,77.9,66.0,30.07,SSE,159,6.2,6.8,66,0.00,,,0.00,TxWx,2013-12-04 16:53:00,
2013-12-04 11:54:00,77.8,66.0,30.07,South,181,8.7,8.7,67,0.00,,,0.00,TxWx,2013-12-04 16:54:00,
2013-12-04 11:55:00,77.7,66.0,30.07,SE,136,9.3,10.5,66,0.00,,,0.00,TxWx,2013-12-04 16:55:00,
2013-12-04 11:56:00,77.8,66.0,30.07,ESE,114,8.7,10.5,66,0.00,,,0.00,TxWx,2013-12-04 16:56:00,
2013-12-04 11:58:00,78.1,66.0,30.07,SE,136,7.4,8.7,66,0.00,,,0.00,TxWx,2013-12-04 16:58:00,
2013-12-04 11:59:00,78.3,66.0,30.07,ESE,114,9.3,9.3,66,0.00,,,0.00,TxWx,2013-12-04 16:59:00,
2013-12-04 12:00:00,78.5,65.0,30.07,SE,136,8.7,9.9,65,0.00,,,0.00,TxWx,2013-12-04 17:00:00,
2013-12-04 12:02:00,78.6,66.0,30.07,SE,136,13.0,13.0,65,0.00,,,0.00,TxWx,2013-12-04 17:02:00,
2013-12-04 12:03:00,78.8,66.0,30.07,SSE,159,6.8,7.4,65,0.00,,,0.00,TxWx,2013-12-04 17:03:00,
2013-12-04 12:04:00,78.6,66.0,30.07,ESE,114,10.5,10.5,65,0.00,,,0.00,TxWx,2013-12-04 17:04:00,
2013-12-04 12:05:00,78.4,65.0,30.07,SE,136,6.8,6.8,64,0.00,,,0.00,TxWx,2013-12-04 17:05:00,
2013-12-04 12:06:00,78.4,65.0,30.07,SE,136,8.0,8.0,65,0.00,,,0.00,TxWx,2013-12-04 17:06:00,
2013-12-04 12:07:00,78.4,65.0,30.07,SSE,159,8.7,10.5,65,0.00,,,0.00,TxWx,2013-12-04 17:07:00,
2013-12-04 12:08:00,78.2,65.0,30.07,SE,136,9.9,9.9,66,0.00,,,0.00,TxWx,2013-12-04 17:08:00,
2013-12-04 12:09:00,78.3,66.0,30.07,ESE,114,6.8,6.8,66,0.00,,,0.00,TxWx,2013-12-04 17:09:00,
2013-12-04 12:11:00,78.2,65.0,30.07,SE,136,3.7,3.7,65,0.00,,,0.00,TxWx,2013-12-04 17:11:00,
2013-12-04 12:12:00,78.1,65.0,30.07,SE,136,8.7,8.7,65,0.00,,,0.00,TxWx,2013-12-04 17:12:00,
2013-12-04 12:13:00,78.1,65.0,30.07,SE,136,5.0,5.0,66,0.00,,,0.00,TxWx,2013-12-04 17:13:00,
2013-12-04 12:14:00,78.1,65.0,30.07,South,181,7.4,8.7,66,0.00,,,0.00,TxWx,2013-12-04 17:14:00,
2013-12-04 12:16:00,78.1,65.0,30.07,ESE,114,4.3,4.3,65,0.00,,,0.00,TxWx,2013-12-04 17:16:00,
2013-12-04 12:17:00,78.2,65.0,30.06,SSE,159,3.7,4.3,65,0.00,,,0.00,TxWx,2013-12-04 17:17:00,
2013-12-04 12:19:00,78.1,65.0,30.07,ESE,114,6.2,6.2,65,0.00,,,0.00,TxWx,2013-12-04 17:19:00,
2013-12-04 12:21:00,78.1,65.0,30.06,SE,136,3.7,3.7,64,0.00,,,0.00,TxWx,2013-12-04 17:21:00,
2013-12-04 12:22:00,78.1,65.0,30.06,SSE,159,5.6,5.6,65,0.00,,,0.00,TxWx,2013-12-04 17:22:00,
2013-12-04 12:23:00,78.2,65.0,30.06,South,181,5.0,5.0,65,0.00,,,0.00,TxWx,2013-12-04 17:23:00,
2013-12-04 12:24:00,78.2,65.0,30.16,SSW,204,4.3,5.6,66,0.00,,,0.00,TxWx,2013-12-04 17:24:00,
2013-12-04 12:25:00,78.0,65.0,30.06,ESE,114,6.2,6.2,66,0.00,,,0.00,TxWx,2013-12-04 17:25:00,
2013-12-04 12:26:00,78.0,65.0,30.06,SE,136,8.7,8.7,65,0.00,,,0.00,TxWx,2013-12-04 17:26:00,
2013-12-04 12:27:00,77.9,65.0,30.06,SSE,159,11.1,12.4,65,0.00,,,0.00,TxWx,2013-12-04 17:27:00,
2013-12-04 12:28:00,77.8,65.0,30.06,SSE,159,12.4,13.0,65,0.00,,,0.00,TxWx,2013-12-04 17:28:00,
2013-12-04 12:29:00,77.8,65.0,30.06,South,181,6.8,7.4,65,0.00,,,0.00,TxWx,2013-12-04 17:29:00,
2013-12-04 12:30:00,78.0,65.0,30.06,SSE,159,8.7,8.7,66,0.00,,,0.00,TxWx,2013-12-04 17:30:00,
2013-12-04 12:32:00,78.0,65.0,30.06,ESE,114,9.9,12.4,65,0.00,,,0.00,TxWx,2013-12-04 17:32:00,
2013-12-04 12:33:00,77.9,65.0,30.06,SE,136,8.0,9.3,64,0.00,,,0.00,TxWx,2013-12-04 17:33:00,
2013-12-04 12:34:00,78.0,65.0,30.06,SSE,159,9.3,10.5,65,0.00,,,0.00,TxWx,2013-12-04 17:34:00,
2013-12-04 12:35:00,78.0,65.0,30.06,SSE,159,11.1,11.1,65,0.00,,,0.00,TxWx,2013-12-04 17:35:00,
2013-12-04 12:37:00,78.0,66.0,30.06,SSE,159,7.4,7.4,66,0.00,,,0.00,TxWx,2013-12-04 17:37:00,
2013-12-04 12:38:00,78.0,65.0,30.06,SSE,159,3.1,3.7,66,0.00,,,0.00,TxWx,2013-12-04 17:38:00,
2013-12-04 12:40:00,78.1,65.0,30.06,South,181,8.0,8.0,66,0.00,,,0.00,TxWx,2013-12-04 17:40:00,
2013-12-04 12:42:00,78.0,65.0,30.06,South,181,8.7,10.5,66,0.00,,,0.00,TxWx,2013-12-04 17:42:00,
2013-12-04 12:43:00,78.0,65.0,30.06,SSE,159,11.1,11.1,66,0.00,,,0.00,TxWx,2013-12-04 17:43:00,
2013-12-04 12:44:00,77.8,65.0,30.05,SE,136,8.0,9.9,65,0.00,,,0.00,TxWx,2013-12-04 17:44:00,
2013-12-04 12:45:00,77.9,65.0,30.05,SSE,159,6.8,8.0,65,0.00,,,0.00,TxWx,2013-12-04 17:45:00,
2013-12-04 12:46:00,77.8,65.0,30.05,SSE,159,8.7,8.7,65,0.00,,,0.00,TxWx,2013-12-04 17:46:00,
2013-12-04 12:47:00,77.9,65.0,30.05,SSE,159,6.2,6.2,66,0.00,,,0.00,TxWx,2013-12-04 17:47:00,
2013-12-04 12:48:00,77.8,65.0,30.05,ESE,114,8.0,8.0,66,0.00,,,0.00,TxWx,2013-12-04 17:48:00,
2013-12-04 12:50:00,77.9,66.0,30.05,SSE,159,9.9,11.8,66,0.00,,,0.00,TxWx,2013-12-04 17:50:00,
2013-12-04 12:51:00,77.8,66.0,30.05,SSE,159,8.0,8.0,66,0.00,,,0.00,TxWx,2013-12-04 17:51:00,
2013-12-04 12:52:00,77.8,65.0,30.05,SE,136,6.8,9.3,66,0.00,,,0.00,TxWx,2013-12-04 17:52:00,
2013-12-04 12:54:00,78.0,65.0,30.05,SSE,159,8.0,8.0,66,0.00,,,0.00,TxWx,2013-12-04 17:54:00,
2013-12-04 12:55:00,78.2,65.0,30.05,SSE,159,4.3,4.3,66,0.00,,,0.00,TxWx,2013-12-04 17:55:00,
2013-12-04 12:56:00,78.4,65.0,30.05,South,181,6.8,6.8,66,0.00,,,0.00,TxWx,2013-12-04 17:56:00,
2013-12-04 12:57:00,78.4,65.0,30.05,SSE,159,6.2,8.0,66,0.00,,,0.00,TxWx,2013-12-04 17:57:00,
2013-12-04 12:58:00,78.4,65.0,30.05,SE,136,4.3,4.3,65,0.00,,,0.00,TxWx,2013-12-04 17:58:00,
2013-12-04 12:59:00,78.4,65.0,30.05,South,181,6.8,6.8,65,0.00,,,0.00,TxWx,2013-12-04 17:59:00,
2013-12-04 13:00:00,78.5,65.0,30.04,South,181,7.4,7.4,64,0.00,,,0.00,TxWx,2013-12-04 18:00:00,
2013-12-04 13:01:00,78.5,66.0,30.04,SSE,159,2.5,3.1,64,0.00,,,0.00,TxWx,2013-12-04 18:01:00,
2013-12-04 13:02:00,78.7,66.0,30.15,SSE,159,7.4,7.4,64,0.00,,,0.00,TxWx,2013-12-04 18:02:00,
2013-12-04 13:04:00,79.0,66.0,30.04,South,181,8.0,8.0,65,0.00,,,0.00,TxWx,2013-12-04 18:04:00,
2013-12-04 13:06:00,78.7,66.0,30.04,South,181,8.7,9.9,65,0.00,,,0.00,TxWx,2013-12-04 18:06:00,
2013-12-04 13:07:00,78.6,66.0,30.04,SSW,204,7.4,7.4,64,0.00,,,0.00,TxWx,2013-12-04 18:07:00,
2013-12-04 13:09:00,78.6,66.0,30.04,SSE,159,11.1,11.1,64,0.00,,,0.00,TxWx,2013-12-04 18:09:00,
2013-12-04 13:11:00,79.2,66.0,30.04,SE,136,7.4,8.0,65,0.00,,,0.00,TxWx,2013-12-04 18:11:00,
2013-12-04 13:12:00,79.0,66.0,30.04,ESE,114,9.9,11.8,65,0.00,,,0.00,TxWx,2013-12-04 18:12:00,
2013-12-04 13:14:00,78.8,67.0,30.04,SE,136,8.7,9.3,66,0.00,,,0.00,TxWx,2013-12-04 18:14:00,
2013-12-04 13:16:00,78.5,66.0,30.04,SE,136,9.3,9.3,66,0.00,,,0.00,TxWx,2013-12-04 18:16:00,
2013-12-04 13:17:00,78.6,67.0,30.04,SSE,159,9.3,9.3,67,0.00,,,0.00,TxWx,2013-12-04 18:17:00,
2013-12-04 13:19:00,78.6,66.0,30.04,SSE,159,6.8,7.4,65,0.00,,,0.00,TxWx,2013-12-04 18:19:00,
2013-12-04 13:22:00,78.6,66.0,30.03,ESE,114,8.7,9.3,65,0.00,,,0.00,TxWx,2013-12-04 18:22:00,
2013-12-04 13:23:00,78.4,65.0,30.03,SSE,159,8.0,10.5,64,0.00,,,0.00,TxWx,2013-12-04 18:23:00,
2013-12-04 13:24:00,78.7,67.0,30.03,ESE,114,6.8,8.7,66,0.00,,,0.00,TxWx,2013-12-04 18:24:00,
2013-12-04 13:27:00,79.3,66.0,30.15,ESE,114,4.3,4.3,65,0.00,,,0.00,TxWx,2013-12-04 18:27:00,
2013-12-04 13:28:00,79.0,66.0,30.03,SSE,159,12.4,12.4,65,0.00,,,0.00,TxWx,2013-12-04 18:28:00,
2013-12-04 13:29:00,78.9,66.0,30.03,SSE,159,9.3,9.3,65,0.00,,,0.00,TxWx,2013-12-04 18:29:00,
2013-12-04 13:30:00,78.8,66.0,30.03,SSE,159,9.9,9.9,64,0.00,,,0.00,TxWx,2013-12-04 18:30:00,
2013-12-04 13:32:00,78.5,66.0,30.03,SSE,159,5.6,8.0,65,0.00,,,0.00,TxWx,2013-12-04 18:32:00,
2013-12-04 13:33:00,78.9,66.0,30.03,SE,136,2.5,4.3,65,0.00,,,0.00,TxWx,2013-12-04 18:33:00,
2013-12-04 13:34:00,79.0,66.0,30.03,SSE,159,8.7,8.7,65,0.00,,,0.00,TxWx,2013-12-04 18:34:00,
2013-12-04 13:35:00,78.8,66.0,30.03,South,181,8.0,8.0,65,0.00,,,0.00,TxWx,2013-12-04 18:35:00,
2013-12-04 13:37:00,78.6,66.0,30.03,SSE,159,12.4,13.0,65,0.00,,,0.00,TxWx,2013-12-04 18:37:00,
2013-12-04 13:38:00,78.7,66.0,30.03,SSE,159,8.7,8.7,65,0.00,,,0.00,TxWx,2013-12-04 18:38:00,
2013-12-04 13:39:00,78.6,66.0,30.03,South,181,6.2,7.4,65,0.00,,,0.00,TxWx,2013-12-04 18:39:00,
2013-12-04 13:40:00,78.6,66.0,30.03,South,181,5.6,7.4,64,0.00,,,0.00,TxWx,2013-12-04 18:40:00,
2013-12-04 13:43:00,78.9,66.0,30.03,SSE,159,8.0,9.9,65,0.00,,,0.00,TxWx,2013-12-04 18:43:00,
2013-12-04 13:44:00,78.8,66.0,30.03,SE,136,5.0,6.2,65,0.00,,,0.00,TxWx,2013-12-04 18:44:00,
2013-12-04 13:45:00,79.0,66.0,30.03,SSE,159,12.4,13.0,65,0.00,,,0.00,TxWx,2013-12-04 18:45:00,
2013-12-04 13:48:00,79.1,66.0,30.02,SE,136,9.3,11.8,64,0.00,,,0.00,TxWx,2013-12-04 18:48:00,
2013-12-04 13:49:00,79.1,66.0,30.03,South,181,6.2,6.8,65,0.00,,,0.00,TxWx,2013-12-04 18:49:00,
2013-12-04 13:50:00,79.4,66.0,30.13,SSE,159,5.6,5.6,64,0.00,,,0.00,TxWx,2013-12-04 18:50:00,
2013-12-04 13:51:00,79.4,66.0,30.03,ESE,114,5.0,5.6,64,0.00,,,0.00,TxWx,2013-12-04 18:51:00,
2013-12-04 13:53:00,79.1,66.0,30.03,SSE,159,6.2,7.4,64,0.00,,,0.00,TxWx,2013-12-04 18:53:00,
2013-12-04 13:54:00,79.1,66.0,30.03,SSE,159,9.3,9.3,64,0.00,,,0.00,TxWx,2013-12-04 18:54:00,
2013-12-04 13:55:00,79.1,66.0,30.03,East,91,4.3,5.6,64,0.00,,,0.00,TxWx,2013-12-04 18:55:00,
2013-12-04 13:56:00,78.9,66.0,30.03,SSE,159,13.0,13.0,64,0.00,,,0.00,TxWx,2013-12-04 18:56:00,
2013-12-04 13:57:00,79.1,66.0,30.03,SE,136,6.8,7.4,64,0.00,,,0.00,TxWx,2013-12-04 18:57:00,
2013-12-04 13:58:00,79.3,66.0,30.03,SE,136,4.3,4.3,65,0.00,,,0.00,TxWx,2013-12-04 18:58:00,
2013-12-04 13:59:00,79.4,66.0,30.03,South,181,4.3,5.6,65,0.00,,,0.00,TxWx,2013-12-04 18:59:00,
2013-12-04 14:00:00,79.3,66.0,30.14,SSE,159,10.5,12.4,65,0.00,,,0.00,TxWx,2013-12-04 19:00:00,
2013-12-04 14:01:00,79.3,66.0,30.03,SSE,159,6.2,6.2,65,0.00,,,0.00,TxWx,2013-12-04 19:01:00,
2013-12-04 14:03:00,79.2,66.0,30.03,SSE,159,9.3,10.5,64,0.00,,,0.00,TxWx,2013-12-04 19:03:00,
2013-12-04 14:04:00,78.7,65.0,30.03,SSE,159,8.7,8.7,63,0.00,,,0.00,TxWx,2013-12-04 19:04:00,
2013-12-04 14:06:00,78.6,65.0,30.03,South,181,4.3,5.6,63,0.00,,,0.00,TxWx,2013-12-04 19:06:00,
2013-12-04 14:09:00,78.6,66.0,30.03,South,181,6.8,6.8,64,0.00,,,0.00,TxWx,2013-12-04 19:09:00,
2013-12-04 14:10:00,78.6,66.0,30.03,SE,136,6.2,7.4,65,0.00,,,0.00,TxWx,2013-12-04 19:10:00,
2013-12-04 14:11:00,78.5,65.0,30.03,SE,136,8.0,8.0,65,0.00,,,0.00,TxWx,2013-12-04 19:11:00,
2013-12-04 14:14:00,78.3,65.0,30.03,South,181,8.7,8.7,65,0.00,,,0.00,TxWx,2013-12-04 19:14:00,
2013-12-04 14:16:00,78.2,65.0,30.03,SE,136,5.0,5.0,64,0.00,,,0.00,TxWx,2013-12-04 19:16:00,
2013-12-04 14:19:00,78.1,65.0,30.02,SSE,159,4.3,5.6,66,0.00,,,0.00,TxWx,2013-12-04 19:19:00,
2013-12-04 14:21:00,78.2,65.0,30.03,South,181,6.2,6.2,65,0.00,,,0.00,TxWx,2013-12-04 19:21:00,
2013-12-04 14:22:00,78.2,65.0,30.03,SE,136,3.1,3.1,65,0.00,,,0.00,TxWx,2013-12-04 19:22:00,
2013-12-04 14:24:00,78.2,65.0,30.02,ESE,114,5.6,5.6,64,0.00,,,0.00,TxWx,2013-12-04 19:24:00,
2013-12-04 14:26:00,78.2,65.0,30.03,SSE,159,7.4,8.0,64,0.00,,,0.00,TxWx,2013-12-04 19:26:00,
2013-12-04 14:27:00,78.2,65.0,30.03,SSE,159,5.6,9.3,64,0.00,,,0.00,TxWx,2013-12-04 19:27:00,
2013-12-04 14:28:00,78.2,65.0,30.03,South,181,4.3,4.3,64,0.00,,,0.00,TxWx,2013-12-04 19:28:00,
2013-12-04 14:29:00,78.1,65.0,30.02,SSE,159,4.3,5.6,65,0.00,,,0.00,TxWx,2013-12-04 19:29:00,
2013-12-04 14:30:00,78.2,65.0,30.02,SE,136,4.3,4.3,65,0.00,,,0.00,TxWx,2013-12-04 19:30:00,
2013-12-04 14:31:00,78.2,65.0,30.03,SE,136,8.7,8.7,66,0.00,,,0.00,TxWx,2013-12-04 19:31:00,
2013-12-04 14:32:00,78.2,65.0,30.03,ESE,114,4.3,4.3,66,0.00,,,0.00,TxWx,2013-12-04 19:32:00,
2013-12-04 14:33:00,78.2,65.0,30.02,SSE,159,7.4,8.0,66,0.00,,,0.00,TxWx,2013-12-04 19:33:00,
2013-12-04 14:35:00,78.3,66.0,30.03,SSE,159,7.4,8.0,66,0.00,,,0.00,TxWx,2013-12-04 19:35:00,
2013-12-04 14:36:00,78.5,66.0,30.02,SSE,159,6.8,6.8,67,0.00,,,0.00,TxWx,2013-12-04 19:36:00,
2013-12-04 14:37:00,78.6,67.0,30.02,SE,136,3.7,3.7,67,0.00,,,0.00,TxWx,2013-12-04 19:37:00,
2013-12-04 14:38:00,78.5,66.0,30.02,SSE,159,8.0,8.7,66,0.00,,,0.00,TxWx,2013-12-04 19:38:00,
2013-12-04 14:40:00,78.5,66.0,30.02,SE,136,3.7,3.7,65,0.00,,,0.00,TxWx,2013-12-04 19:40:00,
2013-12-04 14:41:00,78.7,66.0,30.02,SSW,204,5.0,5.0,65,0.00,,,0.00,TxWx,2013-12-04 19:41:00,
2013-12-04 14:42:00,78.7,66.0,30.02,SE,136,4.3,4.3,65,0.00,,,0.00,TxWx,2013-12-04 19:42:00,
2013-12-04 14:43:00,78.6,66.0,30.02,SSE,159,11.1,11.1,64,0.00,,,0.00,TxWx,2013-12-04 19:43:00,
2013-12-04 14:44:00,78.5,66.0,30.02,SSE,159,13.0,13.0,64,0.00,,,0.00,TxWx,2013-12-04 19:44:00,
2013-12-04 14:45:00,78.4,64.0,30.02,South,181,8.7,8.7,63,0.00,,,0.00,TxWx,2013-12-04 19:45:00,
2013-12-04 14:46:00,78.4,64.0,30.02,SSE,159,8.7,8.7,63,0.00,,,0.00,TxWx,2013-12-04 19:46:00,
2013-12-04 14:47:00,78.3,65.0,30.02,SSE,159,6.8,6.8,64,0.00,,,0.00,TxWx,2013-12-04 19:47:00,
2013-12-04 14:48:00,78.3,65.0,30.02,SE,136,9.3,9.3,64,0.00,,,0.00,TxWx,2013-12-04 19:48:00,
2013-12-04 14:50:00,78.1,65.0,30.02,SE,136,8.7,9.9,65,0.00,,,0.00,TxWx,2013-12-04 19:50:00,
2013-12-04 14:51:00,78.1,65.0,30.03,SE,136,5.6,5.6,65,0.00,,,0.00,TxWx,2013-12-04 19:51:00,
2013-12-04 14:52:00,78.1,65.0,30.03,SSE,159,9.9,11.8,65,0.00,,,0.00,TxWx,2013-12-04 19:52:00,
2013-12-04 14:53:00,78.1,65.0,30.03,SSE,159,6.8,6.8,65,0.00,,,0.00,TxWx,2013-12-04 19:53:00,
2013-12-04 14:55:00,78.1,65.0,30.13,SSE,159,11.8,13.0,65,0.00,,,0.00,TxWx,2013-12-04 19:55:00,
2013-12-04 14:56:00,78.1,65.0,30.02,SSE,159,8.0,9.3,64,0.00,,,0.00,TxWx,2013-12-04 19:56:00,
2013-12-04 14:57:00,78.1,65.0,30.02,South,181,8.0,8.7,64,0.00,,,0.00,TxWx,2013-12-04 19:57:00,
2013-12-04 14:58:00,78.0,64.0,30.02,SSE,159,6.2,6.2,63,0.00,,,0.00,TxWx,2013-12-04 19:58:00,
2013-12-04 15:00:00,78.1,65.0,30.02,SE,136,8.7,9.9,64,0.00,,,0.00,TxWx,2013-12-04 20:00:00,
2013-12-04 15:01:00,78.2,65.0,30.02,SSE,159,11.8,11.8,64,0.00,,,0.00,TxWx,2013-12-04 20:01:00,
2013-12-04 15:03:00,78.2,65.0,30.02,SE,136,6.8,6.8,64,0.00,,,0.00,TxWx,2013-12-04 20:03:00,
2013-12-04 15:04:00,78.3,65.0,30.03,SSE,159,6.8,6.8,65,0.00,,,0.00,TxWx,2013-12-04 20:04:00,
2013-12-04 15:05:00,78.4,65.0,30.02,SE,136,6.2,6.8,65,0.00,,,0.00,TxWx,2013-12-04 20:05:00,
2013-12-04 15:06:00,78.4,65.0,30.03,SSE,159,5.0,5.0,65,0.00,,,0.00,TxWx,2013-12-04 20:06:00,
2013-12-04 15:08:00,78.7,66.0,30.02,South,181,6.8,6.8,65,0.00,,,0.00,TxWx,2013-12-04 20:08:00,
2013-12-04 15:09:00,78.5,66.0,30.10,SSE,159,8.0,9.3,64,0.00,,,0.00,TxWx,2013-12-04 20:09:00,
2013-12-04 15:10:00,78.3,65.0,30.02,SSE,159,9.3,9.3,64,0.00,,,0.00,TxWx,2013-12-04 20:10:00,
2013-12-04 15:11:00,78.3,65.0,30.02,SSE,159,8.0,8.0,64,0.00,,,0.00,TxWx,2013-12-04 20:11:00,
2013-12-04 15:13:00,78.3,65.0,30.02,SE,136,8.0,8.0,64,0.00,,,0.00,TxWx,2013-12-04 20:13:00,
2013-12-04 15:14:00,78.3,65.0,30.02,SE,136,5.6,7.4,64,0.00,,,0.00,TxWx,2013-12-04 20:14:00,
2013-12-04 15:15:00,78.2,65.0,30.02,SE,136,7.4,7.4,64,0.00,,,0.00,TxWx,2013-12-04 20:15:00,
2013-12-04 15:16:00,78.3,65.0,30.02,South,181,6.2,6.8,65,0.00,,,0.00,TxWx,2013-12-04 20:16:00,
2013-12-04 15:18:00,78.3,65.0,30.02,South,181,5.6,8.7,64,0.00,,,0.00,TxWx,2013-12-04 20:18:00,
2013-12-04 15:19:00,78.4,65.0,30.02,SSE,159,8.0,9.3,65,0.00,,,0.00,TxWx,2013-12-04 20:19:00,
2013-12-04 15:20:00,78.4,65.0,30.02,SE,136,8.0,8.0,65,0.00,,,0.00,TxWx,2013-12-04 20:20:00,
2013-12-04 15:21:00,78.2,65.0,30.02,SE,136,8.0,8.0,64,0.00,,,0.00,TxWx,2013-12-04 20:21:00,
2013-12-04 15:23:00,78.2,65.0,30.03,SSE,159,7.4,7.4,65,0.00,,,0.00,TxWx,2013-12-04 20:23:00,
2013-12-04 15:25:00,78.1,65.0,30.02,South,181,7.4,9.3,64,0.00,,,0.00,TxWx,2013-12-04 20:25:00,
2013-12-04 15:26:00,78.3,65.0,30.02,SE,136,5.0,5.0,65,0.00,,,0.00,TxWx,2013-12-04 20:26:00,
2013-12-04 15:28:00,78.2,65.0,30.02,SE,136,5.0,6.2,64,0.00,,,0.00,TxWx,2013-12-04 20:28:00,
2013-12-04 15:30:00,78.3,65.0,30.02,SE,136,9.3,9.9,64,0.00,,,0.00,TxWx,2013-12-04 20:30:00,
2013-12-04 15:31:00,78.3,65.0,30.02,SSE,159,7.4,7.4,65,0.00,,,0.00,TxWx,2013-12-04 20:31:00,
2013-12-04 15:32:00,78.3,65.0,30.02,SSE,159,8.0,8.0,64,0.00,,,0.00,TxWx,2013-12-04 20:32:00,
2013-12-04 15:33:00,78.2,64.0,30.02,SSE,159,8.0,8.0,63,0.00,,,0.00,TxWx,2013-12-04 20:33:00,
2013-12-04 15:35:00,78.1,65.0,30.02,SE,136,9.3,9.3,64,0.00,,,0.00,TxWx,2013-12-04 20:35:00,
2013-12-04 15:37:00,78.1,65.0,30.02,SSE,159,7.4,8.0,64,0.00,,,0.00,TxWx,2013-12-04 20:37:00,
2013-12-04 15:38:00,78.2,65.0,30.02,SSE,159,8.0,8.7,65,0.00,,,0.00,TxWx,2013-12-04 20:38:00,
2013-12-04 15:40:00,78.5,65.0,30.02,SSE,159,3.7,4.3,65,0.00,,,0.00,TxWx,2013-12-04 20:40:00,
2013-12-04 15:41:00,78.5,66.0,30.02,SE,136,3.7,3.7,64,0.00,,,0.00,TxWx,2013-12-04 20:41:00,
2013-12-04 15:42:00,78.4,65.0,30.02,ESE,114,8.7,8.7,65,0.00,,,0.00,TxWx,2013-12-04 20:42:00,
2013-12-04 15:43:00,78.3,65.0,30.02,SSE,159,9.3,9.3,65,0.00,,,0.00,TxWx,2013-12-04 20:43:00,
2013-12-04 15:45:00,78.1,65.0,30.02,SE,136,8.7,8.7,64,0.00,,,0.00,TxWx,2013-12-04 20:45:00,
2013-12-04 15:46:00,78.0,65.0,30.02,South,181,9.3,9.9,64,0.00,,,0.00,TxWx,2013-12-04 20:46:00,
2013-12-04 15:48:00,78.2,65.0,30.02,SSE,159,8.7,8.7,64,0.00,,,0.00,TxWx,2013-12-04 20:48:00,
2013-12-04 15:51:00,78.4,64.0,30.02,SE,136,5.6,5.6,63,0.00,,,0.00,TxWx,2013-12-04 20:51:00,
2013-12-04 15:52:00,78.3,64.0,30.02,SSE,159,7.4,8.0,63,0.00,,,0.00,TxWx,2013-12-04 20:52:00,
2013-12-04 15:53:00,78.2,64.0,30.02,South,181,6.8,6.8,62,0.00,,,0.00,TxWx,2013-12-04 20:53:00,
2013-12-04 15:54:00,78.3,64.0,30.02,SSE,159,6.8,6.8,63,0.00,,,0.00,TxWx,2013-12-04 20:54:00,
2013-12-04 15:55:00,78.4,64.0,30.02,South,181,3.1,3.7,63,0.00,,,0.00,TxWx,2013-12-04 20:55:00,
2013-12-04 15:56:00,78.2,64.0,30.02,SE,136,5.6,6.2,62,0.00,,,0.00,TxWx,2013-12-04 20:56:00,
2013-12-04 15:57:00,78.2,64.0,30.03,SSE,159,8.0,8.0,62,0.00,,,0.00,TxWx,2013-12-04 20:57:00,
2013-12-04 15:58:00,78.3,64.0,30.02,ESE,114,6.8,6.8,62,0.00,,,0.00,TxWx,2013-12-04 20:58:00,
2013-12-04 15:59:00,78.2,64.0,30.03,SE,136,6.2,6.2,62,0.00,,,0.00,TxWx,2013-12-04 20:59:00,
2013-12-04 16:00:00,78.2,63.0,30.02,SE,136,5.6,5.6,61,0.00,,,0.00,TxWx,2013-12-04 21:00:00,
2013-12-04 16:02:00,78.2,64.0,30.02,SSE,159,8.0,8.0,62,0.00,,,0.00,TxWx,2013-12-04 21:02:00,
2013-12-04 16:03:00,78.4,64.0,30.14,SSW,204,5.0,6.2,63,0.00,,,0.00,TxWx,2013-12-04 21:03:00,
2013-12-04 16:04:00,78.4,64.0,30.02,South,181,5.6,5.6,63,0.00,,,0.00,TxWx,2013-12-04 21:04:00,
2013-12-04 16:05:00,78.4,64.0,30.02,SE,136,4.3,4.3,63,0.00,,,0.00,TxWx,2013-12-04 21:05:00,
2013-12-04 16:08:00,78.4,64.0,30.02,SSE,159,3.1,3.1,63,0.00,,,0.00,TxWx,2013-12-04 21:08:00,
2013-12-04 16:09:00,78.5,64.0,30.03,SE,136,1.2,1.9,63,0.00,,,0.00,TxWx,2013-12-04 21:09:00,
2013-12-04 16:10:00,78.5,65.0,30.03,SE,136,3.7,4.3,63,0.00,,,0.00,TxWx,2013-12-04 21:10:00,
2013-12-04 16:13:00,78.4,63.0,30.03,SSE,159,5.6,5.6,60,0.00,,,0.00,TxWx,2013-12-04 21:13:00,
2013-12-04 16:14:00,78.4,63.0,30.15,SSE,159,3.7,4.3,60,0.00,,,0.00,TxWx,2013-12-04 21:14:00,
2013-12-04 16:15:00,78.3,63.0,30.03,South,181,5.6,6.2,61,0.00,,,0.00,TxWx,2013-12-04 21:15:00,
2013-12-04 16:18:00,78.3,64.0,30.02,SE,136,3.7,5.0,63,0.00,,,0.00,TxWx,2013-12-04 21:18:00,
2013-12-04 16:19:00,78.3,64.0,30.03,SE,136,4.3,4.3,63,0.00,,,0.00,TxWx,2013-12-04 21:19:00,
2013-12-04 16:20:00,78.1,64.0,30.03,SSE,159,8.7,8.7,62,0.00,,,0.00,TxWx,2013-12-04 21:20:00,
2013-12-04 16:21:00,78.2,64.0,30.03,SE,136,3.1,3.1,62,0.00,,,0.00,TxWx,2013-12-04 21:21:00,
2013-12-04 16:23:00,78.2,64.0,30.03,SE,136,5.0,5.6,62,0.00,,,0.00,TxWx,2013-12-04 21:23:00,
2013-12-04 16:24:00,78.2,64.0,30.03,ESE,114,6.8,6.8,62,0.00,,,0.00,TxWx,2013-12-04 21:24:00,
2013-12-04 16:25:00,78.1,64.0,30.03,SSE,159,5.6,5.6,62,0.00,,,0.00,TxWx,2013-12-04 21:25:00,
2013-12-04 16:26:00,78.0,65.0,30.03,SSE,159,7.4,7.4,64,0.00,,,0.00,TxWx,2013-12-04 21:26:00,
2013-12-04 16:28:00,77.9,65.0,30.03,SE,136,7.4,7.4,65,0.00,,,0.00,TxWx,2013-12-04 21:28:00,
2013-12-04 16:29:00,77.7,65.0,30.03,SE,136,3.7,3.7,64,0.00,,,0.00,TxWx,2013-12-04 21:29:00,
2013-12-04 16:30:00,77.8,65.0,30.03,SSE,159,3.1,3.7,65,0.00,,,0.00,TxWx,2013-12-04 21:30:00,
2013-12-04 16:31:00,77.7,65.0,30.03,South,181,6.2,7.4,66,0.00,,,0.00,TxWx,2013-12-04 21:31:00,
2013-12-04 16:32:00,77.6,65.0,30.03,SSE,159,3.1,3.1,65,0.00,,,0.00,TxWx,2013-12-04 21:32:00,
2013-12-04 16:33:00,77.5,65.0,30.03,SE,136,5.6,5.6,65,0.00,,,0.00,TxWx,2013-12-04 21:33:00,
2013-12-04 16:34:00,77.5,65.0,30.03,SSE,159,4.3,4.3,65,0.00,,,0.00,TxWx,2013-12-04 21:34:00,
2013-12-04 16:35:00,77.5,65.0,30.03,South,181,3.1,3.1,65,0.00,,,0.00,TxWx,2013-12-04 21:35:00,
2013-12-04 16:37:00,77.6,66.0,30.03,ESE,114,5.0,5.6,66,0.00,,,0.00,TxWx,2013-12-04 21:37:00,
2013-12-04 16:38:00,77.5,66.0,30.03,SE,136,2.5,3.1,66,0.00,,,0.00,TxWx,2013-12-04 21:38:00,
2013-12-04 16:39:00,77.5,65.0,30.03,SSE,159,3.1,3.1,66,0.00,,,0.00,TxWx,2013-12-04 21:39:00,
2013-12-04 16:40:00,77.4,65.0,30.03,SSE,159,6.2,7.4,66,0.00,,,0.00,TxWx,2013-12-04 21:40:00,
2013-12-04 16:42:00,77.4,64.0,30.03,South,181,3.7,4.3,65,0.00,,,0.00,TxWx,2013-12-04 21:42:00,
2013-12-04 16:43:00,77.3,64.0,30.03,ESE,114,3.1,3.7,65,0.00,,,0.00,TxWx,2013-12-04 21:43:00,
2013-12-04 16:44:00,77.3,64.0,30.03,SE,136,5.6,5.6,65,0.00,,,0.00,TxWx,2013-12-04 21:44:00,
2013-12-04 16:45:00,77.4,64.0,30.03,SSE,159,2.5,3.1,65,0.00,,,0.00,TxWx,2013-12-04 21:45:00,
2013-12-04 16:48:00,77.4,64.0,30.04,SSE,159,1.9,2.5,65,0.00,,,0.00,TxWx,2013-12-04 21:48:00,
2013-12-04 16:49:00,77.3,64.0,30.04,SE,136,5.6,5.6,64,0.00,,,0.00,TxWx,2013-12-04 21:49:00,
2013-12-04 16:50:00,77.4,64.0,30.04,South,181,2.5,3.1,64,0.00,,,0.00,TxWx,2013-12-04 21:50:00,
2013-12-04 16:53:00,77.4,64.0,30.04,SE,136,8.7,8.7,65,0.00,,,0.00,TxWx,2013-12-04 21:53:00,
2013-12-04 16:54:00,77.5,64.0,30.04,SSE,159,2.5,3.7,65,0.00,,,0.00,TxWx,2013-12-04 21:54:00,
2013-12-04 16:55:00,77.5,64.0,30.04,South,181,2.5,3.1,65,0.00,,,0.00,TxWx,2013-12-04 21:55:00,
2013-12-04 16:58:00,77.4,64.0,30.04,SE,136,4.3,4.3,65,0.00,,,0.00,TxWx,2013-12-04 21:58:00,
2013-12-04 16:59:00,77.4,64.0,30.04,SSE,159,8.0,8.0,64,0.00,,,0.00,TxWx,2013-12-04 21:59:00,
2013-12-04 17:00:00,77.5,64.0,30.04,SE,136,4.3,5.6,64,0.00,,,0.00,TxWx,2013-12-04 22:00:00,
2013-12-04 17:01:00,77.6,65.0,30.04,ESE,114,3.1,3.1,64,0.00,,,0.00,TxWx,2013-12-04 22:01:00,
2013-12-04 17:04:00,77.5,65.0,30.04,SE,136,6.8,6.8,65,0.00,,,0.00,TxWx,2013-12-04 22:04:00,
2013-12-04 17:05:00,77.5,64.0,30.04,SE,136,6.8,6.8,64,0.00,,,0.00,TxWx,2013-12-04 22:05:00,
2013-12-04 17:06:00,77.5,65.0,30.04,SE,136,5.0,5.6,64,0.00,,,0.00,TxWx,2013-12-04 22:06:00,
2013-12-04 17:09:00,77.5,65.0,30.04,SE,136,4.3,4.3,64,0.00,,,0.00,TxWx,2013-12-04 22:09:00,
2013-12-04 17:10:00,77.5,64.0,30.04,SE,136,5.6,5.6,65,0.00,,,0.00,TxWx,2013-12-04 22:10:00,
2013-12-04 17:11:00,77.4,64.0,30.04,SSE,159,6.2,6.8,64,0.00,,,0.00,TxWx,2013-12-04 22:11:00,
2013-12-04 17:14:00,77.5,65.0,30.12,ESE,114,3.1,3.7,65,0.00,,,0.00,TxWx,2013-12-04 22:14:00,
2013-12-04 17:16:00,77.4,64.0,30.12,SE,136,3.7,3.7,65,0.00,,,0.00,TxWx,2013-12-04 22:16:00,
2013-12-04 17:17:00,77.4,64.0,30.04,SSE,159,5.0,5.0,65,0.00,,,0.00,TxWx,2013-12-04 22:17:00,
2013-12-04 17:19:00,77.4,64.0,30.04,SE,136,4.3,5.0,65,0.00,,,0.00,TxWx,2013-12-04 22:19:00,
2013-12-04 17:20:00,77.4,65.0,30.04,SE,136,6.8,6.8,66,0.00,,,0.00,TxWx,2013-12-04 22:20:00,
2013-12-04 17:21:00,77.4,65.0,30.04,SSE,159,5.0,5.0,66,0.00,,,0.00,TxWx,2013-12-04 22:21:00,
2013-12-04 17:22:00,77.4,64.0,30.04,South,181,3.7,5.0,65,0.00,,,0.00,TxWx,2013-12-04 22:22:00,
2013-12-04 17:23:00,77.3,64.0,30.04,SE,136,5.0,5.0,65,0.00,,,0.00,TxWx,2013-12-04 22:23:00,
2013-12-04 17:24:00,77.3,64.0,30.04,SE,136,2.5,3.1,65,0.00,,,0.00,TxWx,2013-12-04 22:24:00,
2013-12-04 17:25:00,77.3,64.0,30.04,SSE,159,6.2,6.2,65,0.00,,,0.00,TxWx,2013-12-04 22:25:00,
2013-12-04 17:26:00,77.3,65.0,30.04,SSE,159,7.4,8.0,66,0.00,,,0.00,TxWx,2013-12-04 22:26:00,
2013-12-04 17:27:00,77.3,65.0,30.04,ESE,114,4.3,5.6,66,0.00,,,0.00,TxWx,2013-12-04 22:27:00,
2013-12-04 17:29:00,77.3,64.0,30.04,SE,136,5.6,6.2,65,0.00,,,0.00,TxWx,2013-12-04 22:29:00,
2013-12-04 17:30:00,77.3,64.0,30.04,SE,136,4.3,4.3,65,0.00,,,0.00,TxWx,2013-12-04 22:30:00,
2013-12-04 17:31:00,77.4,64.0,30.04,SSE,159,6.8,6.8,65,0.00,,,0.00,TxWx,2013-12-04 22:31:00,
2013-12-04 17:32:00,77.4,65.0,30.04,SE,136,8.0,8.0,66,0.00,,,0.00,TxWx,2013-12-04 22:32:00,
2013-12-04 17:34:00,77.4,65.0,30.04,SSE,159,5.6,5.6,66,0.00,,,0.00,TxWx,2013-12-04 22:34:00,
2013-12-04 17:36:00,77.4,64.0,30.04,SE,136,6.2,7.4,64,0.00,,,0.00,TxWx,2013-12-04 22:36:00,
2013-12-04 17:37:00,77.4,64.0,30.04,SE,136,5.6,6.2,64,0.00,,,0.00,TxWx,2013-12-04 22:37:00,
2013-12-04 17:39:00,77.4,64.0,30.04,SSE,159,6.2,6.8,64,0.00,,,0.00,TxWx,2013-12-04 22:39:00,
2013-12-04 17:41:00,77.4,63.0,30.04,SSE,159,5.6,6.2,63,0.00,,,0.00,TxWx,2013-12-04 22:41:00,
2013-12-04 17:42:00,77.5,65.0,30.04,SE,136,5.0,5.6,64,0.00,,,0.00,TxWx,2013-12-04 22:42:00,
2013-12-04 17:43:00,77.4,64.0,30.04,SSE,159,8.7,9.9,64,0.00,,,0.00,TxWx,2013-12-04 22:43:00,
2013-12-04 17:44:00,77.4,63.0,30.04,SSE,159,6.2,6.8,63,0.00,,,0.00,TxWx,2013-12-04 22:44:00,
2013-12-04 17:46:00,77.5,64.0,30.05,ESE,114,5.6,5.6,64,0.00,,,0.00,TxWx,2013-12-04 22:46:00,
2013-12-04 17:47:00,77.4,64.0,30.05,SE,136,3.7,3.7,64,0.00,,,0.00,TxWx,2013-12-04 22:47:00,
2013-12-04 17:48:00,77.4,64.0,30.05,SSE,159,5.6,6.8,64,0.00,,,0.00,TxWx,2013-12-04 22:48:00,
2013-12-04 17:50:00,77.4,63.0,30.05,SE,136,5.6,5.6,62,0.00,,,0.00,TxWx,2013-12-04 22:50:00,
2013-12-04 17:51:00,77.4,63.0,30.05,SE,136,5.6,6.2,62,0.00,,,0.00,TxWx,2013-12-04 22:51:00,
2013-12-04 17:52:00,77.4,63.0,30.05,ESE,114,6.2,6.8,62,0.00,,,0.00,TxWx,2013-12-04 22:52:00,
2013-12-04 17:53:00,77.4,63.0,30.05,SSE,159,5.6,5.6,62,0.00,,,0.00,TxWx,2013-12-04 22:53:00,
2013-12-04 17:55:00,77.5,63.0,30.05,SE,136,5.0,5.0,63,0.00,,,0.00,TxWx,2013-12-04 22:55:00,
2013-12-04 17:56:00,77.5,64.0,30.05,SE,136,6.2,6.2,63,0.00,,,0.00,TxWx,2013-12-04 22:56:00,
2013-12-04 17:57:00,77.6,65.0,30.05,SE,136,6.2,6.2,64,0.00,,,0.00,TxWx,2013-12-04 22:57:00,
2013-12-04 17:59:00,77.4,63.0,30.05,SE,136,6.8,6.8,63,0.00,,,0.00,TxWx,2013-12-04 22:59:00,
2013-12-04 18:00:00,77.4,63.0,30.05,SE,136,5.6,6.8,63,0.00,,,0.00,TxWx,2013-12-04 23:00:00,
2013-12-04 18:01:00,77.4,64.0,30.05,SSE,159,5.6,5.6,64,0.00,,,0.00,TxWx,2013-12-04 23:01:00,
2013-12-04 18:02:00,77.4,64.0,30.05,SSE,159,4.3,5.0,64,0.00,,,0.00,TxWx,2013-12-04 23:02:00,
2013-12-04 18:04:00,77.4,64.0,30.05,ESE,114,6.2,6.8,65,0.00,,,0.00,TxWx,2013-12-04 23:04:00,
2013-12-04 18:06:00,77.4,64.0,30.05,SE,136,6.2,6.8,65,0.00,,,0.00,TxWx,2013-12-04 23:06:00,
2013-12-04 18:07:00,77.4,64.0,30.06,SSE,159,8.7,8.7,64,0.00,,,0.00,TxWx,2013-12-04 23:07:00,
2013-12-04 18:08:00,77.4,63.0,30.05,SE,136,5.0,6.2,63,0.00,,,0.00,TxWx,2013-12-04 23:08:00,
2013-12-04 18:09:00,77.4,64.0,30.05,SE,136,6.2,6.2,64,0.00,,,0.00,TxWx,2013-12-04 23:09:00,
2013-12-04 18:11:00,77.4,64.0,30.05,SE,136,5.0,5.6,64,0.00,,,0.00,TxWx,2013-12-04 23:11:00,
2013-12-04 18:12:00,77.4,64.0,30.05,SE,136,5.0,6.2,64,0.00,,,0.00,TxWx,2013-12-04 23:12:00,
2013-12-04 18:14:00,77.4,64.0,30.05,SE,136,3.7,3.7,64,0.00,,,0.00,TxWx,2013-12-04 23:14:00,
2013-12-04 18:15:00,77.4,64.0,30.05,SE,136,5.6,6.8,64,0.00,,,0.00,TxWx,2013-12-04 23:15:00,
2013-12-04 18:17:00,77.5,64.0,30.06,SE,136,5.6,6.2,65,0.00,,,0.00,TxWx,2013-12-04 23:17:00,
2013-12-04 18:19:00,77.5,65.0,30.06,SE,136,6.8,6.8,65,0.00,,,0.00,TxWx,2013-12-04 23:19:00,
2013-12-04 18:20:00,77.4,65.0,30.06,SE,136,7.4,7.4,66,0.00,,,0.00,TxWx,2013-12-04 23:20:00,
2013-12-04 18:22:00,77.5,65.0,30.06,SE,136,6.2,6.2,67,0.00,,,0.00,TxWx,2013-12-04 23:22:00,
2013-12-04 18:23:00,77.4,65.0,30.06,SE,136,5.6,6.8,66,0.00,,,0.00,TxWx,2013-12-04 23:23:00,
2013-12-04 18:25:00,77.4,65.0,30.06,SE,136,3.7,4.3,66,0.00,,,0.00,TxWx,2013-12-04 23:25:00,
2013-12-04 18:27:00,77.4,65.0,30.06,SE,136,6.8,8.0,66,0.00,,,0.00,TxWx,2013-12-04 23:27:00,
2013-12-04 18:28:00,77.3,65.0,30.06,SE,136,5.0,5.0,66,0.00,,,0.00,TxWx,2013-12-04 23:28:00,
2013-12-04 18:29:00,77.3,65.0,30.06,SE,136,6.8,6.8,66,0.00,,,0.00,TxWx,2013-12-04 23:29:00,
2013-12-04 18:30:00,77.3,64.0,30.06,SE,136,7.4,7.4,65,0.00,,,0.00,TxWx,2013-12-04 23:30:00,
2013-12-04 18:33:00,77.4,65.0,30.06,SE,136,5.0,5.6,66,0.00,,,0.00,TxWx,2013-12-04 23:33:00,
2013-12-04 18:34:00,77.4,65.0,30.06,SE,136,5.0,5.0,67,0.00,,,0.00,TxWx,2013-12-04 23:34:00,
2013-12-04 18:35:00,77.3,65.0,30.06,SE,136,6.2,6.2,66,0.00,,,0.00,TxWx,2013-12-04 23:35:00,
2013-12-04 18:38:00,77.3,65.0,30.07,ESE,114,6.2,6.2,66,0.00,,,0.00,TxWx,2013-12-04 23:38:00,
2013-12-04 18:40:00,77.3,64.0,30.07,SE,136,6.2,6.2,65,0.00,,,0.00,TxWx,2013-12-04 23:40:00,
2013-12-04 18:44:00,77.4,64.0,30.07,SE,136,6.8,6.8,65,0.00,,,0.00,TxWx,2013-12-04 23:44:00,
2013-12-04 18:45:00,77.3,64.0,30.07,SE,136,6.2,6.2,65,0.00,,,0.00,TxWx,2013-12-04 23:45:00,
2013-12-04 18:46:00,77.4,64.0,30.07,SE,136,6.8,7.4,65,0.00,,,0.00,TxWx,2013-12-04 23:46:00,
2013-12-04 18:49:00,77.3,65.0,30.07,SE,136,6.2,6.2,66,0.00,,,0.00,TxWx,2013-12-04 23:49:00,
2013-12-04 18:50:00,77.4,65.0,30.07,SE,136,6.2,6.2,66,0.00,,,0.00,TxWx,2013-12-04 23:50:00,
2013-12-04 18:51:00,77.4,65.0,30.07,SE,136,5.0,5.0,66,0.00,,,0.00,TxWx,2013-12-04 23:51:00,
2013-12-04 18:54:00,77.3,65.0,30.07,SE,136,7.4,8.0,66,0.00,,,0.00,TxWx,2013-12-04 23:54:00,
2013-12-04 18:55:00,77.4,65.0,30.07,SE,136,6.2,6.2,66,0.00,,,0.00,TxWx,2013-12-04 23:55:00,
2013-12-04 18:56:00,77.3,65.0,30.07,SE,136,6.8,7.4,66,0.00,,,0.00,TxWx,2013-12-04 23:56:00,
2013-12-04 18:57:00,77.3,64.0,30.07,SE,136,5.6,5.6,65,0.00,,,0.00,TxWx,2013-12-04 23:57:00,
2013-12-04 18:59:00,77.4,65.0,30.07,SE,136,7.4,7.4,66,0.00,,,0.00,TxWx,2013-12-04 23:59:00,
2013-12-04 19:01:00,77.4,64.0,30.07,SE,136,6.8,6.8,65,0.00,,,0.00,TxWx,2013-12-05 00:01:00,
2013-12-04 19:02:00,77.3,64.0,30.07,SE,136,6.2,6.2,65,0.00,,,0.00,TxWx,2013-12-05 00:02:00,
2013-12-04 19:04:00,77.4,64.0,30.07,SE,136,5.0,5.0,65,0.00,,,0.00,TxWx,2013-12-05 00:04:00,
2013-12-04 19:05:00,77.3,64.0,30.07,SE,136,5.0,5.0,65,0.00,,,0.00,TxWx,2013-12-05 00:05:00,
2013-12-04 19:06:00,77.3,64.0,30.07,SE,136,6.2,6.8,65,0.00,,,0.00,TxWx,2013-12-05 00:06:00,
2013-12-04 19:07:00,77.3,64.0,30.07,SE,136,7.4,7.4,65,0.00,,,0.00,TxWx,2013-12-05 00:07:00,
2013-12-04 19:10:00,77.3,65.0,30.07,SE,136,6.8,6.8,66,0.00,,,0.00,TxWx,2013-12-05 00:10:00,
2013-12-04 19:11:00,77.4,64.0,30.07,SE,136,6.8,6.8,65,0.00,,,0.00,TxWx,2013-12-05 00:11:00,
2013-12-04 19:12:00,77.4,64.0,30.07,SE,136,6.2,6.2,64,0.00,,,0.00,TxWx,2013-12-05 00:12:00,
2013-12-04 19:15:00,77.4,64.0,30.07,SE,136,5.0,5.6,65,0.00,,,0.00,TxWx,2013-12-05 00:15:00,
2013-12-04 19:16:00,77.4,64.0,30.07,SE,136,5.0,5.6,65,0.00,,,0.00,TxWx,2013-12-05 00:16:00,
2013-12-04 19:17:00,77.5,64.0,30.07,SE,136,5.0,5.0,64,0.00,,,0.00,TxWx,2013-12-05 00:17:00,
2013-12-04 19:18:00,77.3,64.0,30.07,SE,136,5.6,6.2,64,0.00,,,0.00,TxWx,2013-12-05 00:18:00,
2013-12-04 19:20:00,77.4,64.0,30.07,SE,136,5.0,5.0,64,0.00,,,0.00,TxWx,2013-12-05 00:20:00,
2013-12-04 19:21:00,77.4,64.0,30.08,SE,136,4.3,5.0,64,0.00,,,0.00,TxWx,2013-12-05 00:21:00,
2013-12-04 19:22:00,77.4,64.0,30.07,SE,136,4.3,5.0,64,0.00,,,0.00,TxWx,2013-12-05 00:22:00,
2013-12-04 19:23:00,77.3,64.0,30.07,SE,136,5.6,7.4,64,0.00,,,0.00,TxWx,2013-12-05 00:23:00,
2013-12-04 19:25:00,77.4,64.0,30.08,SE,136,3.7,4.3,64,0.00,,,0.00,TxWx,2013-12-05 00:25:00,
2013-12-04 19:27:00,77.3,64.0,30.08,SE,136,5.0,5.0,64,0.00,,,0.00,TxWx,2013-12-05 00:27:00,
2013-12-04 19:29:00,77.3,64.0,30.07,SE,136,5.0,5.0,64,0.00,,,0.00,TxWx,2013-12-05 00:29:00,
2013-12-04 19:30:00,77.4,64.0,30.08,SSE,159,5.6,6.2,64,0.00,,,0.00,TxWx,2013-12-05 00:30:00,
2013-12-04 19:32:00,77.4,64.0,30.08,SE,136,5.6,5.6,65,0.00,,,0.00,TxWx,2013-12-05 00:32:00,
2013-12-04 19:33:00,77.4,65.0,30.08,SSE,159,5.6,5.6,66,0.00,,,0.00,TxWx,2013-12-05 00:33:00,
2013-12-04 19:34:00,77.4,65.0,30.07,SSE,159,4.3,5.0,66,0.00,,,0.00,TxWx,2013-12-05 00:34:00,
2013-12-04 19:36:00,77.3,65.0,30.08,SSE,159,6.8,6.8,66,0.00,,,0.00,TxWx,2013-12-05 00:36:00,
2013-12-04 19:37:00,77.4,65.0,30.08,SE,136,6.2,6.2,66,0.00,,,0.00,TxWx,2013-12-05 00:37:00,
2013-12-04 19:38:00,77.2,65.0,30.08,SSE,159,6.2,6.2,66,0.00,,,0.00,TxWx,2013-12-05 00:38:00,
2013-12-04 19:39:00,77.3,64.0,30.08,SE,136,5.0,5.6,65,0.00,,,0.00,TxWx,2013-12-05 00:39:00,
2013-12-04 19:41:00,77.3,64.0,30.07,SE,136,7.4,7.4,65,0.00,,,0.00,TxWx,2013-12-05 00:41:00,
2013-12-04 19:42:00,77.4,65.0,30.08,SSE,159,5.6,5.6,66,0.00,,,0.00,TxWx,2013-12-05 00:42:00,
2013-12-04 19:43:00,77.3,65.0,30.08,SE,136,3.7,4.3,66,0.00,,,0.00,TxWx,2013-12-05 00:43:00,
2013-12-04 19:44:00,77.2,65.0,30.07,SE,136,6.2,6.2,66,0.00,,,0.00,TxWx,2013-12-05 00:44:00,
2013-12-04 19:47:00,77.3,65.0,30.07,SE,136,6.8,6.8,66,0.00,,,0.00,TxWx,2013-12-05 00:47:00,
2013-12-04 19:48:00,77.3,65.0,30.08,SE,136,5.0,5.0,67,0.00,,,0.00,TxWx,2013-12-05 00:48:00,
2013-12-04 19:49:00,77.3,65.0,30.08,SE,136,5.6,5.6,67,0.00,,,0.00,TxWx,2013-12-05 00:49:00,
2013-12-04 19:52:00,77.2,65.0,30.07,SE,136,6.8,7.4,67,0.00,,,0.00,TxWx,2013-12-05 00:52:00,
2013-12-04 19:53:00,77.2,65.0,30.07,SE,136,6.2,6.2,66,0.00,,,0.00,TxWx,2013-12-05 00:53:00,
2013-12-04 19:54:00,77.3,65.0,30.08,ESE,114,5.6,6.8,66,0.00,,,0.00,TxWx,2013-12-05 00:54:00,
2013-12-04 19:55:00,77.3,65.0,30.08,SE,136,7.4,7.4,66,0.00,,,0.00,TxWx,2013-12-05 00:55:00,
2013-12-04 19:57:00,77.4,65.0,30.08,SE,136,7.4,7.4,67,0.00,,,0.00,TxWx,2013-12-05 00:57:00,
2013-12-04 19:58:00,77.3,65.0,30.07,ESE,114,5.6,5.6,66,0.00,,,0.00,TxWx,2013-12-05 00:58:00,
2013-12-04 19:59:00,77.4,65.0,30.08,ESE,114,5.6,5.6,67,0.00,,,0.00,TxWx,2013-12-05 00:59:00,
2013-12-04 20:00:00,77.3,65.0,30.08,SE,136,5.6,5.6,67,0.00,,,0.00,TxWx,2013-12-05 01:00:00,
2013-12-04 20:02:00,77.3,65.0,30.08,SE,136,4.3,5.0,67,0.00,,,0.00,TxWx,2013-12-05 01:02:00,
2013-12-04 20:04:00,77.2,65.0,30.08,SE,136,6.2,6.8,67,0.00,,,0.00,TxWx,2013-12-05 01:04:00,
2013-12-04 20:05:00,77.3,65.0,30.08,SE,136,4.3,4.3,67,0.00,,,0.00,TxWx,2013-12-05 01:05:00,
2013-12-04 20:08:00,77.3,65.0,30.08,SE,136,5.6,5.6,67,0.00,,,0.00,TxWx,2013-12-05 01:08:00,
2013-12-04 20:09:00,77.1,65.0,30.08,SE,136,5.6,5.6,67,0.00,,,0.00,TxWx,2013-12-05 01:09:00,
2013-12-04 20:10:00,77.2,65.0,30.08,SE,136,5.6,5.6,67,0.00,,,0.00,TxWx,2013-12-05 01:10:00,
2013-12-04 20:11:00,77.3,65.0,30.08,SE,136,6.8,7.4,67,0.00,,,0.00,TxWx,2013-12-05 01:11:00,
2013-12-04 20:13:00,77.3,65.0,30.08,SE,136,5.6,6.2,67,0.00,,,0.00,TxWx,2013-12-05 01:13:00,
2013-12-04 20:14:00,77.3,65.0,30.08,SE,136,6.2,6.8,67,0.00,,,0.00,TxWx,2013-12-05 01:14:00,
2013-12-04 20:16:00,77.3,65.0,30.08,SE,136,4.3,5.0,67,0.00,,,0.00,TxWx,2013-12-05 01:16:00,
2013-12-04 20:17:00,77.3,65.0,30.08,SE,136,5.6,5.6,67,0.00,,,0.00,TxWx,2013-12-05 01:17:00,
2013-12-04 20:18:00,77.3,65.0,30.08,ESE,114,6.2,6.2,66,0.00,,,0.00,TxWx,2013-12-05 01:18:00,
2013-12-04 20:19:00,77.3,65.0,30.08,SE,136,6.8,6.8,67,0.00,,,0.00,TxWx,2013-12-05 01:19:00,
2013-12-04 20:20:00,77.3,65.0,30.08,ESE,114,6.2,6.8,67,0.00,,,0.00,TxWx,2013-12-05 01:20:00,
2013-12-04 20:22:00,77.3,65.0,30.08,SE,136,6.2,6.2,66,0.00,,,0.00,TxWx,2013-12-05 01:22:00,
2013-12-04 20:23:00,77.3,65.0,30.08,ESE,114,6.2,6.8,66,0.00,,,0.00,TxWx,2013-12-05 01:23:00,
2013-12-04 20:24:00,77.3,64.0,30.08,SE,136,5.6,5.6,65,0.00,,,0.00,TxWx,2013-12-05 01:24:00,
2013-12-04 20:25:00,77.3,64.0,30.08,SE,136,7.4,7.4,65,0.00,,,0.00,TxWx,2013-12-05 01:25:00,
2013-12-04 20:27:00,77.5,65.0,30.08,SE,136,4.3,5.0,65,0.00,,,0.00,TxWx,2013-12-05 01:27:00,
2013-12-04 20:28:00,77.5,64.0,30.08,ESE,114,5.6,5.6,65,0.00,,,0.00,TxWx,2013-12-05 01:28:00,
2013-12-04 20:29:00,77.5,64.0,30.08,SE,136,5.0,5.0,65,0.00,,,0.00,TxWx,2013-12-05 01:29:00,
2013-12-04 20:31:00,77.3,64.0,30.08,ESE,114,4.3,5.6,65,0.00,,,0.00,TxWx,2013-12-05 01:31:00,
2013-12-04 20:33:00,77.5,64.0,30.08,ESE,114,6.8,7.4,64,0.00,,,0.00,TxWx,2013-12-05 01:33:00,
2013-12-04 20:34:00,77.5,64.0,30.08,ESE,114,5.6,5.6,64,0.00,,,0.00,TxWx,2013-12-05 01:34:00,
2013-12-04 20:35:00,77.6,65.0,30.08,ESE,114,5.6,6.2,64,0.00,,,0.00,TxWx,2013-12-05 01:35:00,
2013-12-04 20:36:00,77.5,64.0,30.08,SE,136,6.8,6.8,64,0.00,,,0.00,TxWx,2013-12-05 01:36:00,
2013-12-04 20:38:00,77.5,64.0,30.08,SE,136,5.6,6.8,64,0.00,,,0.00,TxWx,2013-12-05 01:38:00,
2013-12-04 20:39:00,77.5,64.0,30.08,SE,136,6.8,7.4,64,0.00,,,0.00,TxWx,2013-12-05 01:39:00,
2013-12-04 20:40:00,77.4,64.0,30.08,SE,136,8.0,8.7,64,0.00,,,0.00,TxWx,2013-12-05 01:40:00,
2013-12-04 20:41:00,77.4,63.0,30.08,SE,136,6.2,8.0,63,0.00,,,0.00,TxWx,2013-12-05 01:41:00,
2013-12-04 20:44:00,77.5,64.0,30.08,SE,136,8.0,8.7,64,0.00,,,0.00,TxWx,2013-12-05 01:44:00,
2013-12-04 20:45:00,77.5,64.0,30.08,SE,136,5.0,5.6,64,0.00,,,0.00,TxWx,2013-12-05 01:45:00,
2013-12-04 20:46:00,77.4,63.0,30.08,SE,136,6.2,6.8,63,0.00,,,0.00,TxWx,2013-12-05 01:46:00,
2013-12-04 20:49:00,77.4,63.0,30.08,SE,136,3.1,3.7,63,0.00,,,0.00,TxWx,2013-12-05 01:49:00,
2013-12-04 20:50:00,77.5,64.0,30.08,SE,136,6.2,6.8,64,0.00,,,0.00,TxWx,2013-12-05 01:50:00,
2013-12-04 20:51:00,77.4,63.0,30.08,SE,136,6.2,6.8,63,0.00,,,0.00,TxWx,2013-12-05 01:51:00,
2013-12-04 20:54:00,77.5,63.0,30.08,ESE,114,6.2,6.2,63,0.00,,,0.00,TxWx,2013-12-05 01:54:00,
2013-12-04 20:55:00,77.4,63.0,30.09,SE,136,6.8,6.8,63,0.00,,,0.00,TxWx,2013-12-05 01:55:00,
2013-12-04 20:56:00,77.6,64.0,30.08,SE,136,5.0,5.0,63,0.00,,,0.00,TxWx,2013-12-05 01:56:00,
2013-12-04 20:57:00,77.5,63.0,30.08,SE,136,6.8,6.8,63,0.00,,,0.00,TxWx,2013-12-05 01:57:00,
2013-12-04 20:59:00,77.5,64.0,30.09,SE,136,6.8,6.8,63,0.00,,,0.00,TxWx,2013-12-05 01:59:00,
2013-12-04 21:01:00,77.7,64.0,30.08,SE,136,6.8,6.8,63,0.00,,,0.00,TxWx,2013-12-05 02:01:00,
2013-12-04 21:02:00,77.5,63.0,30.08,SE,136,8.7,8.7,63,0.00,,,0.00,TxWx,2013-12-05 02:02:00,
2013-12-04 21:04:00,77.6,63.0,30.08,SE,136,5.6,5.6,61,0.00,,,0.00,TxWx,2013-12-05 02:04:00,
2013-12-04 21:05:00,77.6,63.0,30.09,ESE,114,5.0,5.0,61,0.00,,,0.00,TxWx,2013-12-05 02:05:00,
2013-12-04 21:06:00,77.6,64.0,30.08,SE,136,6.2,6.8,63,0.00,,,0.00,TxWx,2013-12-05 02:06:00,
2013-12-04 21:07:00,77.5,64.0,30.08,SE,136,5.6,6.2,63,0.00,,,0.00,TxWx,2013-12-05 02:07:00,
2013-12-04 21:09:00,77.5,64.0,30.09,ESE,114,5.6,6.2,62,0.00,,,0.00,TxWx,2013-12-05 02:09:00,
2013-12-04 21:10:00,77.5,63.0,30.09,SE,136,5.6,5.6,62,0.00,,,0.00,TxWx,2013-12-05 02:10:00,
2013-12-04 21:11:00,77.4,63.0,30.09,SSE,159,4.3,4.3,62,0.00,,,0.00,TxWx,2013-12-05 02:11:00,
2013-12-04 21:12:00,77.4,63.0,30.09,SE,136,5.0,5.6,62,0.00,,,0.00,TxWx,2013-12-05 02:12:00,
2013-12-04 21:15:00,77.4,62.0,30.09,SE,136,7.4,7.4,61,0.00,,,0.00,TxWx,2013-12-05 02:15:00,
2013-12-04 21:17:00,77.5,63.0,30.09,ESE,114,5.6,6.2,61,0.00,,,0.00,TxWx,2013-12-05 02:17:00,
2013-12-04 21:18:00,77.5,62.0,30.09,SE,136,6.2,6.2,61,0.00,,,0.00,TxWx,2013-12-05 02:18:00,
2013-12-04 21:20:00,77.6,64.0,30.09,SE,136,6.2,6.2,62,0.00,,,0.00,TxWx,2013-12-05 02:20:00,
2013-12-04 21:22:00,77.5,64.0,30.09,SE,136,6.8,7.4,63,0.00,,,0.00,TxWx,2013-12-05 02:22:00,
2013-12-04 21:23:00,77.5,64.0,30.09,SE,136,7.4,7.4,63,0.00,,,0.00,TxWx,2013-12-05 02:23:00,
2013-12-04 21:25:00,77.6,63.0,30.09,SE,136,4.3,5.6,61,0.00,,,0.00,TxWx,2013-12-05 02:25:00,
2013-12-04 21:26:00,77.6,64.0,30.09,SE,136,5.0,5.6,62,0.00,,,0.00,TxWx,2013-12-05 02:26:00,
2013-12-04 21:27:00,77.5,64.0,30.09,ESE,114,5.6,6.2,63,0.00,,,0.00,TxWx,2013-12-05 02:27:00,
2013-12-04 21:28:00,77.5,64.0,30.09,SE,136,8.7,8.7,63,0.00,,,0.00,TxWx,2013-12-05 02:28:00,
2013-12-04 21:29:00,77.6,64.0,30.09,SE,136,5.6,5.6,63,0.00,,,0.00,TxWx,2013-12-05 02:29:00,
2013-12-04 21:30:00,77.7,65.0,30.09,SE,136,6.2,7.4,64,0.00,,,0.00,TxWx,2013-12-05 02:30:00,
2013-12-04 21:31:00,77.5,64.0,30.09,SE,136,7.4,7.4,65,0.00,,,0.00,TxWx,2013-12-05 02:31:00,
2013-12-04 21:33:00,77.4,64.0,30.09,SE,136,7.4,7.4,65,0.00,,,0.00,TxWx,2013-12-05 02:33:00,
2013-12-04 21:34:00,77.4,64.0,30.09,ESE,114,7.4,7.4,65,0.00,,,0.00,TxWx,2013-12-05 02:34:00,
2013-12-04 21:36:00,77.4,64.0,30.09,SE,136,6.2,6.2,65,0.00,,,0.00,TxWx,2013-12-05 02:36:00,
2013-12-04 21:38:00,77.4,64.0,30.09,SE,136,6.2,6.8,65,0.00,,,0.00,TxWx,2013-12-05 02:38:00,
2013-12-04 21:39:00,77.4,64.0,30.09,SE,136,6.8,7.4,65,0.00,,,0.00,TxWx,2013-12-05 02:39:00,
2013-12-04 21:40:00,77.3,64.0,30.09,SE,136,6.8,8.0,65,0.00,,,0.00,TxWx,2013-12-05 02:40:00,
2013-12-04 21:41:00,77.3,64.0,30.09,ESE,114,6.2,7.4,65,0.00,,,0.00,TxWx,2013-12-05 02:41:00,
2013-12-04 21:43:00,77.3,64.0,30.08,ESE,114,6.2,7.4,65,0.00,,,0.00,TxWx,2013-12-05 02:43:00,
2013-12-04 21:44:00,77.2,64.0,30.09,SE,136,6.8,6.8,65,0.00,,,0.00,TxWx,2013-12-05 02:44:00,
2013-12-04 21:46:00,77.3,64.0,30.09,ESE,114,6.2,7.4,65,0.00,,,0.00,TxWx,2013-12-05 02:46:00,
2013-12-04 21:47:00,77.3,64.0,30.09,ESE,114,6.8,8.0,65,0.00,,,0.00,TxWx,2013-12-05 02:47:00,
2013-12-04 21:49:00,77.3,64.0,30.09,SE,136,7.4,7.4,64,0.00,,,0.00,TxWx,2013-12-05 02:49:00,
2013-12-04 21:50:00,77.4,64.0,30.09,SE,136,8.7,8.7,65,0.00,,,0.00,TxWx,2013-12-05 02:50:00,
2013-12-04 21:51:00,77.3,64.0,30.09,SE,136,8.0,8.0,65,0.00,,,0.00,TxWx,2013-12-05 02:51:00,
2013-12-04 21:52:00,77.3,64.0,30.09,SE,136,8.0,8.0,65,0.00,,,0.00,TxWx,2013-12-05 02:52:00,
2013-12-04 21:54:00,77.3,64.0,30.09,SE,136,6.8,6.8,65,0.00,,,0.00,TxWx,2013-12-05 02:54:00,
2013-12-04 21:55:00,77.3,64.0,30.09,SE,136,8.0,8.7,65,0.00,,,0.00,TxWx,2013-12-05 02:55:00,
2013-12-04 21:56:00,77.1,65.0,30.09,East,91,6.8,7.4,66,0.00,,,0.00,TxWx,2013-12-05 02:56:00,
2013-12-04 21:57:00,77.2,64.0,30.09,SE,136,6.2,6.8,65,0.00,,,0.00,TxWx,2013-12-05 02:57:00,
2013-12-04 21:59:00,77.3,64.0,30.09,SE,136,8.0,8.7,64,0.00,,,0.00,TxWx,2013-12-05 02:59:00,
2013-12-04 22:00:00,77.2,64.0,30.09,SE,136,8.0,8.0,64,0.00,,,0.00,TxWx,2013-12-05 03:00:00,
2013-12-04 22:01:00,77.2,64.0,30.08,SE,136,8.0,8.7,65,0.00,,,0.00,TxWx,2013-12-05 03:01:00,
2013-12-04 22:02:00,77.3,64.0,30.09,SSE,159,8.0,8.0,65,0.00,,,0.00,TxWx,2013-12-05 03:02:00,
2013-12-04 22:03:00,77.3,64.0,30.09,SE,136,5.6,6.2,65,0.00,,,0.00,TxWx,2013-12-05 03:03:00,
2013-12-04 22:04:00,77.3,64.0,30.09,SE,136,5.0,5.6,65,0.00,,,0.00,TxWx,2013-12-05 03:04:00,
2013-12-04 22:05:00,77.3,64.0,30.09,SE,136,5.0,5.0,65,0.00,,,0.00,TxWx,2013-12-05 03:05:00,
2013-12-04 22:06:00,77.2,64.0,30.09,SE,136,6.2,7.4,65,0.00,,,0.00,TxWx,2013-12-05 03:06:00,
2013-12-04 22:08:00,77.3,64.0,30.09,SE,136,9.9,9.9,65,0.00,,,0.00,TxWx,2013-12-05 03:08:00,
2013-12-04 22:09:00,77.3,65.0,30.09,SE,136,7.4,7.4,66,0.00,,,0.00,TxWx,2013-12-05 03:09:00,
2013-12-04 22:10:00,77.2,65.0,30.09,SE,136,6.8,6.8,66,0.00,,,0.00,TxWx,2013-12-05 03:10:00,
2013-12-04 22:11:00,77.2,65.0,30.09,SE,136,6.8,6.8,66,0.00,,,0.00,TxWx,2013-12-05 03:11:00,
2013-12-04 22:13:00,77.2,65.0,30.09,ESE,114,8.7,8.7,66,0.00,,,0.00,TxWx,2013-12-05 03:13:00,
2013-12-04 22:14:00,77.2,64.0,30.09,ESE,114,7.4,7.4,65,0.00,,,0.00,TxWx,2013-12-05 03:14:00,
2013-12-04 22:15:00,77.2,64.0,30.09,SE,136,8.7,8.7,65,0.00,,,0.00,TxWx,2013-12-05 03:15:00,
2013-12-04 22:16:00,77.2,65.0,30.09,SE,136,5.6,5.6,66,0.00,,,0.00,TxWx,2013-12-05 03:16:00,
2013-12-04 22:18:00,77.2,65.0,30.09,ESE,114,6.8,7.4,67,0.00,,,0.00,TxWx,2013-12-05 03:18:00,
2013-12-04 22:19:00,77.2,65.0,30.09,SE,136,7.4,7.4,67,0.00,,,0.00,TxWx,2013-12-05 03:19:00,
2013-12-04 22:20:00,77.2,65.0,30.09,SE,136,8.0,8.0,67,0.00,,,0.00,TxWx,2013-12-05 03:20:00,
2013-12-04 22:21:00,77.1,65.0,30.09,SE,136,7.4,7.4,67,0.00,,,0.00,TxWx,2013-12-05 03:21:00,
2013-12-04 22:23:00,77.2,65.0,30.09,SE,136,6.8,6.8,66,0.00,,,0.00,TxWx,2013-12-05 03:23:00,
2013-12-04 22:25:00,77.1,65.0,30.09,SE,136,8.0,8.0,66,0.00,,,0.00,TxWx,2013-12-05 03:25:00,
2013-12-04 22:26:00,77.1,65.0,30.09,SE,136,8.7,8.7,66,0.00,,,0.00,TxWx,2013-12-05 03:26:00,
2013-12-04 22:27:00,77.2,64.0,30.09,ESE,114,6.8,8.0,65,0.00,,,0.00,TxWx,2013-12-05 03:27:00,
2013-12-04 22:29:00,77.1,65.0,30.09,SSE,159,6.8,6.8,66,0.00,,,0.00,TxWx,2013-12-05 03:29:00,
2013-12-04 22:30:00,77.2,65.0,30.09,ESE,114,8.0,8.0,66,0.00,,,0.00,TxWx,2013-12-05 03:30:00,
2013-12-04 22:32:00,77.3,65.0,30.09,SE,136,6.8,7.4,67,0.00,,,0.00,TxWx,2013-12-05 03:32:00,
2013-12-04 22:33:00,77.1,65.0,30.09,ESE,114,8.0,9.3,67,0.00,,,0.00,TxWx,2013-12-05 03:33:00,
2013-12-04 22:35:00,77.2,65.0,30.09,SE,136,5.6,6.8,66,0.00,,,0.00,TxWx,2013-12-05 03:35:00,
2013-12-04 22:36:00,77.2,65.0,30.09,SE,136,8.7,8.7,66,0.00,,,0.00,TxWx,2013-12-05 03:36:00,
2013-12-04 22:37:00,77.1,65.0,30.09,SE,136,8.0,9.3,66,0.00,,,0.00,TxWx,2013-12-05 03:37:00,
2013-12-04 22:38:00,77.1,64.0,30.09,SE,136,6.8,6.8,65,0.00,,,0.00,TxWx,2013-12-05 03:38:00,
2013-12-04 22:41:00,77.2,65.0,30.09,SE,136,8.0,8.0,67,0.00,,,0.00,TxWx,2013-12-05 03:41:00,
2013-12-04 22:42:00,77.2,65.0,30.09,ESE,114,8.7,8.7,68,0.00,,,0.00,TxWx,2013-12-05 03:42:00,
2013-12-04 22:43:00,77.0,65.0,30.09,SSE,159,9.9,9.9,67,0.00,,,0.00,TxWx,2013-12-05 03:43:00,
2013-12-04 22:46:00,77.1,65.0,30.09,ESE,114,9.9,9.9,68,0.00,,,0.00,TxWx,2013-12-05 03:46:00,
2013-12-04 22:47:00,77.1,66.0,30.09,SE,136,8.0,8.0,68,0.00,,,0.00,TxWx,2013-12-05 03:47:00,
2013-12-04 22:48:00,77.0,66.0,30.09,SE,136,8.0,8.0,68,0.00,,,0.00,TxWx,2013-12-05 03:48:00,
2013-12-04 22:49:00,77.0,66.0,30.09,ESE,114,8.7,9.3,69,0.00,,,0.00,TxWx,2013-12-05 03:49:00,
2013-12-04 22:51:00,77.1,66.0,30.09,ESE,114,8.0,8.7,68,0.00,,,0.00,TxWx,2013-12-05 03:51:00,
2013-12-04 22:52:00,77.1,66.0,30.09,SE,136,9.9,11.1,69,0.00,,,0.00,TxWx,2013-12-05 03:52:00,
2013-12-04 22:53:00,77.0,66.0,30.09,ESE,114,9.3,9.9,69,0.00,,,0.00,TxWx,2013-12-05 03:53:00,
2013-12-04 22:54:00,77.0,66.0,30.09,ESE,114,8.0,10.5,68,0.00,,,0.00,TxWx,2013-12-05 03:54:00,
2013-12-04 22:55:00,77.0,66.0,30.09,SE,136,9.9,9.9,69,0.00,,,0.00,TxWx,2013-12-05 03:55:00,
2013-12-04 22:57:00,77.2,66.0,30.09,SE,136,8.7,9.9,69,0.00,,,0.00,TxWx,2013-12-05 03:57:00,
2013-12-04 22:58:00,77.0,66.0,30.09,SE,136,8.0,9.3,68,0.00,,,0.00,TxWx,2013-12-05 03:58:00,
2013-12-04 23:00:00,77.3,66.0,30.09,ESE,114,9.3,9.3,70,0.00,,,0.00,TxWx,2013-12-05 04:00:00,
2013-12-04 23:02:00,77.0,65.0,30.09,ESE,114,8.7,8.7,68,0.00,,,0.00,TxWx,2013-12-05 04:02:00,
2013-12-04 23:03:00,77.0,65.0,30.09,SE,136,7.4,8.0,68,0.00,,,0.00,TxWx,2013-12-05 04:03:00,
2013-12-04 23:05:00,77.1,65.0,30.10,ESE,114,7.4,8.0,68,0.00,,,0.00,TxWx,2013-12-05 04:05:00,
2013-12-04 23:06:00,77.2,66.0,30.09,SE,136,6.8,7.4,68,0.00,,,0.00,TxWx,2013-12-05 04:06:00,
2013-12-04 23:07:00,77.1,65.0,30.09,ESE,114,6.2,7.4,68,0.00,,,0.00,TxWx,2013-12-05 04:07:00,
2013-12-04 23:08:00,76.9,65.0,30.09,SE,136,6.8,8.0,68,0.00,,,0.00,TxWx,2013-12-05 04:08:00,
2013-12-04 23:11:00,76.9,66.0,30.09,SE,136,9.9,9.9,69,0.00,,,0.00,TxWx,2013-12-05 04:11:00,
2013-12-04 23:12:00,76.9,66.0,30.09,SE,136,6.2,7.4,69,0.00,,,0.00,TxWx,2013-12-05 04:12:00,
2013-12-04 23:14:00,77.0,66.0,30.09,SE,136,10.5,10.5,69,0.00,,,0.00,TxWx,2013-12-05 04:14:00,
2013-12-04 23:16:00,77.1,66.0,30.10,SE,136,7.4,7.4,69,0.00,,,0.00,TxWx,2013-12-05 04:16:00,
2013-12-04 23:17:00,76.9,66.0,30.09,SE,136,11.1,11.1,69,0.00,,,0.00,TxWx,2013-12-05 04:17:00,
2013-12-04 23:18:00,76.9,66.0,30.09,SE,136,11.1,11.8,69,0.00,,,0.00,TxWx,2013-12-05 04:18:00,
2013-12-04 23:19:00,77.1,66.0,30.09,SE,136,9.9,9.9,69,0.00,,,0.00,TxWx,2013-12-05 04:19:00,
2013-12-04 23:21:00,77.0,66.0,30.09,ESE,114,9.3,9.3,69,0.00,,,0.00,TxWx,2013-12-05 04:21:00,
2013-12-04 23:22:00,76.9,66.0,30.09,ESE,114,7.4,9.3,69,0.00,,,0.00,TxWx,2013-12-05 04:22:00,
2013-12-04 23:23:00,77.1,66.0,30.09,ESE,114,9.3,9.9,69,0.00,,,0.00,TxWx,2013-12-05 04:23:00,
2013-12-04 23:24:00,77.1,66.0,30.09,ESE,114,6.8,6.8,70,0.00,,,0.00,TxWx,2013-12-05 04:24:00,
2013-12-04 23:27:00,77.0,66.0,30.09,SE,136,9.3,9.3,70,0.00,,,0.00,TxWx,2013-12-05 04:27:00,
2013-12-04 23:28:00,77.0,66.0,30.09,SE,136,9.3,9.3,70,0.00,,,0.00,TxWx,2013-12-05 04:28:00,
2013-12-04 23:29:00,76.9,66.0,30.09,SE,136,9.3,9.3,69,0.00,,,0.00,TxWx,2013-12-05 04:29:00,
2013-12-04 23:30:00,76.8,66.0,30.09,ESE,114,9.3,9.3,70,0.00,,,0.00,TxWx,2013-12-05 04:30:00,
2013-12-04 23:32:00,76.9,66.0,30.09,SE,136,7.4,7.4,69,0.00,,,0.00,TxWx,2013-12-05 04:32:00,
2013-12-04 23:33:00,76.9,66.0,30.09,SE,136,6.8,6.8,70,0.00,,,0.00,TxWx,2013-12-05 04:33:00,
2013-12-04 23:34:00,76.9,66.0,30.09,SE,136,8.0,11.8,69,0.00,,,0.00,TxWx,2013-12-05 04:34:00,
2013-12-04 23:35:00,76.9,66.0,30.08,SE,136,11.8,11.8,69,0.00,,,0.00,TxWx,2013-12-05 04:35:00,
2013-12-04 23:37:00,77.0,66.0,30.09,ESE,114,8.0,9.3,69,0.00,,,0.00,TxWx,2013-12-05 04:37:00,
2013-12-04 23:38:00,77.1,66.0,30.09,ESE,114,8.7,8.7,69,0.00,,,0.00,TxWx,2013-12-05 04:38:00,
2013-12-04 23:39:00,77.1,66.0,30.09,ESE,114,6.8,7.4,69,0.00,,,0.00,TxWx,2013-12-05 04:39:00,
2013-12-04 23:42:00,76.8,66.0,30.09,ESE,114,9.9,11.1,68,0.00,,,0.00,TxWx,2013-12-05 04:42:00,
2013-12-04 23:43:00,77.0,65.0,30.09,SE,136,8.0,8.0,68,0.00,,,0.00,TxWx,2013-12-05 04:43:00,
2013-12-04 23:44:00,77.0,65.0,30.09,SE,136,7.4,7.4,68,0.00,,,0.00,TxWx,2013-12-05 04:44:00,
2013-12-04 23:47:00,76.9,66.0,30.09,ESE,114,9.3,9.3,70,0.00,,,0.00,TxWx,2013-12-05 04:47:00,
2013-12-04 23:48:00,77.0,66.0,30.08,ESE,114,8.0,8.7,70,0.00,,,0.00,TxWx,2013-12-05 04:48:00,
2013-12-04 23:49:00,76.9,66.0,30.09,ESE,114,8.0,8.0,69,0.00,,,0.00,TxWx,2013-12-05 04:49:00,
2013-12-04 23:50:00,76.8,66.0,30.09,SE,136,8.7,9.9,69,0.00,,,0.00,TxWx,2013-12-05 04:50:00,
2013-12-04 23:52:00,76.9,66.0,30.09,SE,136,9.3,9.3,68,0.00,,,0.00,TxWx,2013-12-05 04:52:00,
2013-12-04 23:53:00,77.0,66.0,30.09,ESE,114,9.9,9.9,68,0.00,,,0.00,TxWx,2013-12-05 04:53:00,
2013-12-04 23:54:00,76.9,66.0,30.09,ESE,114,9.9,9.9,68,0.00,,,0.00,TxWx,2013-12-05 04:54:00,
2013-12-04 23:55:00,77.1,66.0,30.09,SE,136,9.3,9.3,69,0.00,,,0.00,TxWx,2013-12-05 04:55:00,
2013-12-04 23:56:00,76.9,66.0,30.08,ESE,114,9.9,9.9,68,0.00,,,0.00,TxWx,2013-12-05 04:56:00,
2013-12-04 23:57:00,77.1,66.0,30.09,SE,136,6.8,6.8,68,0.00,,,0.00,TxWx,2013-12-05 04:57:00,
2013-12-04 23:58:00,76.9,66.0,30.09,SE,136,8.0,9.3,68,0.00,,,0.00,TxWx,2013-12-05 04:58:00,
2013-12-04 23:59:00,77.0,65.0,30.09,SE,136,8.0,9.3,68,0.00,,,0.00,TxWx,2013-12-05 04:59:00,